Dados Meteorológicos "Online"
 
  Base de Dados  
 
Dinamização da Estação Meteorológica (na escola)
 
Dados relativos aos últimos 2 meses:
Data/HoraTemperaturaHumi. Rela.PressãoPrecipitaçãoVel.VentoDir.VentoVel.RajadaDir.RajadaRadiação SolarÍndice U.V.
(ºC)(%)(hPa)(mm)(km/h)(km/h)(W / m2)(0-11)
2019-03-24 07:00:008,986,51016,603,1E11,3E60
2019-03-24 06:00:009,387,91016,503,6NE8,7NE-10
2019-03-24 05:00:009,887,51016,204,1NE11,2NE-10
2019-03-24 04:00:0010,387,01015,802,6NE9,2NE00
2019-03-24 03:00:0011,483,71015,903,6NE10,4NE-10
2019-03-24 02:00:0012,082,81016,004,5NE8,9NE-10
2019-03-24 01:00:0012,679,71015,905,9E13,3E00
2019-03-24 00:00:0012,977,51016,208,1E15,6E00
2019-03-23 23:00:0013,275,41016,205,3E9,3E-10
2019-03-23 22:00:0014,272,31015,805,2E11,4E00
2019-03-23 21:00:0015,269,91015,406,9E16,7E-10
2019-03-23 20:00:0016,266,11014,608,4E23,8SE-10
2019-03-23 19:00:0017,361,91014,0012,4SE27,8SE110,0
2019-03-23 18:00:0018,456,91013,4016,5SE33,4SE400,1
2019-03-23 17:00:0019,852,81013,2015,7SE31,9S2560,6
2019-03-23 16:00:0021,346,41013,3018,8SE34,5S5191,7
2019-03-23 15:00:0022,541,81014,0016,0SE32,3SE6332,8
2019-03-23 14:00:0022,041,11014,7017,6SE37,7SE7053,6
2019-03-23 13:00:0021,841,11015,6017,0SE38,1SE7113,8
2019-03-23 12:00:0021,240,01016,4018,3SE34,0E6693,4
2019-03-23 11:00:0020,043,91017,5016,3E32,1E5772,4
2019-03-23 10:00:0017,752,31018,0014,3E25,6E4421,4
2019-03-23 09:00:0014,163,31018,509,7E21,8SE2780,5
2019-03-23 08:00:009,979,61018,905,0E14,9E1150,0
2019-03-23 07:00:008,188,61018,904,2E8,0E60
2019-03-23 06:00:007,391,51018,703,6NE9,1NE-10
2019-03-23 05:00:008,390,11018,902,4NE5,9NE00
2019-03-23 04:00:008,989,51019,003,5E8,2E-10
2019-03-23 03:00:009,286,91019,503,5E7,2E-10
2019-03-23 02:00:009,583,91019,702,1E10,3E00
2019-03-23 01:00:0010,080,81019,302,3NE5,0N00
2019-03-23 00:00:0010,977,71019,402,1N6,9NW00
2019-03-22 23:00:0011,974,91019,704,6E12,0SE00
2019-03-22 22:00:0011,970,31019,403,4SE6,7E00
2019-03-22 21:00:0012,664,81018,802,1N6,1N00
2019-03-22 20:00:0014,061,51018,003,4W9,7W00
2019-03-22 19:00:0015,854,81017,503,3W12,2W100,0
2019-03-22 18:00:0017,151,71017,204,7SW10,8SW280,1
2019-03-22 17:00:0019,043,51016,909,2S19,5S2610,6
2019-03-22 16:00:0020,639,51017,4012,9S24,4SE5281,8
2019-03-22 15:00:0020,641,41018,0015,4S27,6S6362,8
2019-03-22 14:00:0020,145,41018,5014,5S30,5S7163,6
2019-03-22 13:00:0020,343,51019,3012,0S25,0SE6853,6
2019-03-22 12:00:0019,941,21020,309,6SE20,8SE6253,1
2019-03-22 11:00:0018,445,41021,1010,3E24,5E5852,3
2019-03-22 10:00:0016,455,81021,707,3E15,7NE4461,3
2019-03-22 09:00:0011,582,21022,304,4NE10,8E2850,5
2019-03-22 08:00:007,695,51022,302,0NE6,1E1300,0
2019-03-22 07:00:006,695,01022,101,2NE6,8E50
2019-03-22 06:00:007,193,61021,902,2E5,7E00
2019-03-22 05:00:007,392,01021,902,4E12,7E00
2019-03-22 04:00:007,691,51022,102,4E5,6E00
2019-03-22 03:00:008,090,31022,202,8E5,8E00
2019-03-22 02:00:008,288,31022,102,2E7,6E00
2019-03-22 01:00:008,688,71021,602,8E5,1E00
2019-03-22 00:00:009,389,51021,502,7NE8,4N00
2019-03-21 23:00:0010,188,11021,402,5N6,4N00
2019-03-21 22:00:0011,284,11021,102,1W5,1S00
2019-03-21 21:00:0012,279,81020,402,6W8,6NW00
2019-03-21 20:00:0013,365,21019,505,6NW12,5N00
2019-03-21 19:00:0014,749,51019,104,3N11,3NW90,0
2019-03-21 18:00:0015,749,91019,004,2W11,5S300,1
2019-03-21 17:00:0017,253,11018,709,5S24,6S2360,6
2019-03-21 16:00:0019,746,01018,808,8S20,8SE5011,8
2019-03-21 15:00:0019,045,61019,1013,8SE32,1SE4602,5
2019-03-21 14:00:0018,548,91019,70,219,0SE32,7SE7233,7
2019-03-21 13:00:0018,450,61020,2015,7SE28,2S4252,5
2019-03-21 12:00:0019,153,11020,7013,8S31,2SE6823,6
2019-03-21 11:00:0018,455,41021,309,4S21,5S6322,7
2019-03-21 10:00:0016,261,61021,905,7E11,0E4411,4
2019-03-21 09:00:0013,175,41022,505,5NE12,3NE2780,5
2019-03-21 08:00:009,789,91022,703,8NE7,3NE1160,0
2019-03-21 07:00:009,191,91022,202,9NE8,6NE40
2019-03-21 06:00:009,391,41021,903,0NE7,0E00
2019-03-21 05:00:009,990,61021,503,7NE8,9E-10
2019-03-21 04:00:0010,389,61021,202,4NE8,6E-10
2019-03-21 03:00:009,891,71021,603,9E8,4E00
2019-03-21 02:00:009,392,11021,703,9E9,2E00
2019-03-21 01:00:009,591,31021,602,4E4,9NE00
2019-03-21 00:00:0010,390,41021,501,9E4,4E00
2019-03-20 23:00:0011,088,81021,502,0NE4,9NE00
2019-03-20 22:00:0011,985,61021,201,4N4,1NE00
2019-03-20 21:00:0012,882,71020,502,9W7,8NW00
2019-03-20 20:00:0013,778,11019,903,2SW6,7SW00
2019-03-20 19:00:0015,667,71018,305,2SW10,9SW210
2019-03-20 18:00:0016,862,81018,406,7SW13,6SW940,1
2019-03-20 17:00:0017,460,81017,008,3S16,4SW2710,7
2019-03-20 16:00:0018,758,91018,4010,3S21,1S4591,9
2019-03-20 15:00:0019,455,11017,0013,9S26,0S6363,3
2019-03-20 14:00:0019,653,51017,5013,0S23,9S7084,2
2019-03-20 13:00:0019,156,61019,6016,7S31,4SE7174,4
2019-03-20 12:00:0019,355,41020,6015,7S32,6S6713,9
2019-03-20 11:00:0019,251,71021,2010,4SE20,2S5822,8
2019-03-20 10:00:0017,450,61021,707,0E17,9E4481,6
2019-03-20 09:00:0013,255,11022,203,9NE10,9NE2820,6
2019-03-20 08:00:009,367,11022,102,6NE7,0NE1180,1
2019-03-20 07:00:008,175,41021,404,9NE9,6NE40
2019-03-20 06:00:008,377,61020,803,8NE9,8NE-10
2019-03-20 05:00:008,376,31020,402,9E8,3NE00
2019-03-20 04:00:008,976,01020,201,5NE4,8NE00
2019-03-20 03:00:0010,370,01020,302,4E6,9NE00
2019-03-20 02:00:0012,064,91020,404,5NE10,6E00
2019-03-20 01:00:0012,858,31020,405,4NE10,7NE00
2019-03-20 00:00:0012,954,71020,505,4NE10,4N-10
2019-03-19 23:00:0013,358,41020,305,6NE11,5NE00
2019-03-19 22:00:0012,484,01019,703,3N10,7N-10
2019-03-19 21:00:0013,883,41019,003,3E7,6SE00
2019-03-19 20:00:0014,575,91018,202,9E6,5E00
2019-03-19 19:00:0016,169,11017,604,6SE12,0SE70,0
2019-03-19 18:00:0016,964,91016,907,9S18,7S200,1
2019-03-19 17:00:0018,459,41016,408,8S17,6S2420,7
2019-03-19 16:00:0020,252,61016,609,6SW18,2SW5162,2
2019-03-19 15:00:0020,654,81017,1012,2SW22,1SW6363,5
2019-03-19 14:00:0020,654,41017,6013,3SW24,3SW7074,5
2019-03-19 13:00:0021,246,51018,1013,0S19,3S7154,7
2019-03-19 12:00:0021,934,31018,608,2SE16,1SW6714,1
2019-03-19 11:00:0020,034,61019,206,9E13,9SE5812,9
2019-03-19 10:00:0017,641,21019,806,0NE12,4E4431,6
2019-03-19 09:00:0013,951,61020,204,6E10,7NE2760,5
2019-03-19 08:00:0010,463,51020,101,8NE4,7NE1080,0
2019-03-19 07:00:0010,759,71019,404,0E12,0E30
2019-03-19 06:00:0012,351,81019,007,2E15,9NE-10
2019-03-19 05:00:0013,048,31018,909,5E19,0NE00
2019-03-19 04:00:0012,353,81018,906,9NE19,2NE-10
2019-03-19 03:00:0012,953,31019,405,2NE11,2NE-10
2019-03-19 02:00:0013,056,71019,807,2NE16,1NE00
2019-03-19 01:00:0010,676,51020,005,8NE14,6NE00
2019-03-19 00:00:0010,281,91020,202,7N6,6N00
2019-03-18 23:00:0010,979,31020,002,3NW5,7N00
2019-03-18 22:00:0011,675,31019,901,5NE4,8NE-10
2019-03-18 21:00:0012,372,31019,103,1NW6,5NW00
2019-03-18 20:00:0013,168,71018,402,7W5,3W00
2019-03-18 19:00:0014,364,51018,003,3W7,0W80,0
2019-03-18 18:00:0015,261,91017,405,0SW14,4S220,1
2019-03-18 17:00:0016,756,11016,707,9S15,9S2190,6
2019-03-18 16:00:0018,151,81016,4011,0S19,5S5121,9
2019-03-18 15:00:0019,053,91016,8012,8S25,6S6373,1
2019-03-18 14:00:0019,154,81017,2011,1S22,1S7133,9
2019-03-18 13:00:0020,249,11017,8010,2E23,0NE7204,1
2019-03-18 12:00:0019,050,81018,308,2NE20,0N6743,5
2019-03-18 11:00:0016,856,01019,008,6E20,4NE5822,5
2019-03-18 10:00:0014,863,41019,405,5E15,6NE4401,3
2019-03-18 09:00:0011,278,11019,802,5NE8,3E2720,4
2019-03-18 08:00:007,689,11019,901,3SW5,1N820,0
2019-03-18 07:00:007,287,41019,302,1W10,0W20
2019-03-18 06:00:007,885,51019,203,2NW8,5NW00
2019-03-18 05:00:008,783,61018,903,0NW8,4NW00
2019-03-18 04:00:009,584,01018,603,0NW9,2N00
2019-03-18 03:00:0010,781,11018,706,0NW15,2NW00
2019-03-18 02:00:0011,684,91018,708,8NW18,2NW00
2019-03-18 01:00:0012,488,21018,808,2NW18,9N00
2019-03-18 00:00:0012,786,01018,807,6NW18,7N00
2019-03-17 23:00:0013,084,31018,807,5NW16,1N00
2019-03-17 22:00:0013,482,11018,509,9NW22,7NW00
2019-03-17 21:00:0013,679,11018,109,0NW20,0NW00
2019-03-17 20:00:0014,476,91017,509,9NW22,6NW-10
2019-03-17 19:00:0015,970,51016,7011,2NW25,4NW90
2019-03-17 18:00:0018,356,31016,2012,3N22,8N300,1
2019-03-17 17:00:0020,150,51015,5011,9NW24,0NW2090,5
2019-03-17 16:00:0022,842,21015,7012,9NW27,6NW5041,8
2019-03-17 15:00:0024,337,31016,4011,3NW25,7NW6332,9
2019-03-17 14:00:0023,638,31017,308,2NW24,2N6903,6
2019-03-17 13:00:0021,843,41018,407,7NE19,1E6723,7
2019-03-17 12:00:0020,046,21019,405,5NE15,2E6283,2
2019-03-17 11:00:0017,852,91020,005,6NE14,1N5572,3
2019-03-17 10:00:0015,264,61020,404,5N15,2NE4131,2
2019-03-17 09:00:0011,183,31020,703,3N10,7W2470,3
2019-03-17 08:00:007,493,51020,501,2N3,8N850,0
2019-03-17 07:00:006,792,91019,902,8N6,4NE30
2019-03-17 06:00:006,991,51019,502,4E11,0E00
2019-03-17 05:00:007,389,21018,601,7N4,8NW00
2019-03-17 04:00:007,686,01018,102,2N5,7NW00
2019-03-17 03:00:008,085,41018,002,1W7,4S00
2019-03-17 02:00:008,985,71018,002,3N7,1N-10
2019-03-17 01:00:009,879,61018,003,6N9,5N00
2019-03-17 00:00:0010,167,11017,903,3NW9,2NW00
2019-03-16 23:00:0010,964,41017,803,1N8,9NW00
2019-03-16 22:00:0011,865,41017,502,0NW6,4NW00
2019-03-16 21:00:0013,363,11016,704,7NW13,0W00
2019-03-16 20:00:0015,257,61015,906,8NW15,6NW00
2019-03-16 19:00:0017,247,81015,309,6NW20,4NW60
2019-03-16 18:00:0019,643,91014,8010,4NW25,1W190,1
2019-03-16 17:00:0020,739,71014,708,5W18,0W1810,6
2019-03-16 16:00:0022,835,31015,1010,9SW22,9W5131,9
2019-03-16 15:00:0022,334,51015,709,3SW17,9SW6473,0
2019-03-16 14:00:0022,835,11016,709,7SW16,7SW7193,8
2019-03-16 13:00:0021,939,11017,508,9SW19,1S7244,0
2019-03-16 12:00:0021,738,51018,008,1SW15,7S6743,5
2019-03-16 11:00:0020,738,41018,706,3S12,9S5792,5
2019-03-16 10:00:0018,343,21019,103,5SE11,8SW4371,3
2019-03-16 09:00:0012,165,11019,501,4NE6,2N2700,4
2019-03-16 08:00:007,384,71019,901,4NE3,3N1020,0
2019-03-16 07:00:006,585,41019,801,2NE2,5NE20
2019-03-16 06:00:007,284,91019,602,5E13,0E00
2019-03-16 05:00:007,385,01019,503,2E9,7E-10
2019-03-16 04:00:007,784,71019,301,6NE9,0E-10
2019-03-16 03:00:007,984,01019,602,5E4,1E00
2019-03-16 02:00:008,681,01019,902,3E4,1E-10
2019-03-16 01:00:009,178,01020,201,6E3,6E00
2019-03-16 00:00:0010,171,31020,501,7NE4,7NE00
2019-03-15 23:00:0011,362,21020,502,9N7,8NW00
2019-03-15 22:00:0011,863,71020,004,8NW15,0NW00
2019-03-15 21:00:0012,959,01019,502,4NW7,2NW00
2019-03-15 20:00:0014,253,31019,103,5W8,9W00
2019-03-15 19:00:0016,446,01018,602,8W8,3W70
2019-03-15 18:00:0018,540,91018,304,2S12,3SW200,1
2019-03-15 17:00:0020,038,51018,108,8SE15,8SE1710,6
2019-03-15 16:00:0022,237,21018,209,5S24,9S5091,8
2019-03-15 15:00:0023,233,61018,5011,0S22,2SE6382,9
2019-03-15 14:00:0023,032,81019,2010,3S22,4S7093,6
2019-03-15 13:00:0022,538,71020,0010,5S22,1SE7133,8
2019-03-15 12:00:0022,636,41020,909,8S18,3S6613,3
2019-03-15 11:00:0021,832,61021,807,8E16,8E5722,4
2019-03-15 10:00:0018,443,61022,505,0E11,8E4321,3
2019-03-15 09:00:0012,661,91023,102,3NE7,2NE2630,4
2019-03-15 08:00:008,279,01023,502,2E6,7SE960,0
2019-03-15 07:00:007,081,71023,102,6E5,4E20
2019-03-15 06:00:007,678,71022,903,0E4,9E00
2019-03-15 05:00:008,472,71022,502,9E6,8NE00
2019-03-15 04:00:008,970,31022,604,2NE7,8NE-10
2019-03-15 03:00:009,473,51023,002,9NE7,9NE00
2019-03-15 02:00:009,971,51023,303,6E6,6E00
2019-03-15 01:00:0011,163,41023,303,0E7,4NE00
2019-03-15 00:00:0010,571,71023,305,6N9,2N00
2019-03-14 23:00:0010,973,31023,402,2N7,2N-10
2019-03-14 22:00:0011,970,11023,201,6NE5,1NE00
2019-03-14 21:00:0013,369,91022,602,0NE5,1W00
2019-03-14 20:00:0014,559,11022,102,7SW15,1SW-10
2019-03-14 19:00:0015,944,31021,603,0SW9,8SW60
2019-03-14 18:00:0017,739,81021,105,6SW10,4SW180,1
2019-03-14 17:00:0018,937,21021,106,6SW14,1SW1610,5
2019-03-14 16:00:0021,438,11021,408,9SW17,9SW5011,8
2019-03-14 15:00:0021,835,61021,609,9S20,0S6282,8
2019-03-14 14:00:0021,335,41022,3013,1S23,8SE6973,5
2019-03-14 13:00:0021,637,31023,4010,9S20,5SE7053,6
2019-03-14 12:00:0022,131,51024,409,9SE19,9S6553,1
2019-03-14 11:00:0019,836,31025,109,2E17,8SE5602,1
2019-03-14 10:00:0016,744,91025,309,3E21,6E4201,1
2019-03-14 09:00:0012,958,71025,606,2NE13,8E2550,3
2019-03-14 08:00:0010,166,61025,607,5NE13,2NE900,0
2019-03-14 07:00:0010,065,61025,207,4NE16,5NE10
2019-03-14 06:00:009,965,01024,905,8NE13,0NE00
2019-03-14 05:00:0010,364,11024,506,0NE17,8NE00
2019-03-14 04:00:0010,863,81024,707,4NE21,7NE00
2019-03-14 03:00:0011,064,91025,206,7NE14,2NE00
2019-03-14 02:00:0011,367,01025,307,8NE16,9NE00
2019-03-14 01:00:0011,966,61025,3010,5NE19,9NE00
2019-03-14 00:00:0012,065,61025,407,6NE17,7NE-10
2019-03-13 23:00:0012,159,81025,306,1NE18,1NE00
2019-03-13 22:00:0012,954,21024,503,6NW13,5N00
2019-03-13 21:00:0014,247,81024,309,0N18,1N-10
2019-03-13 20:00:0015,343,71023,809,6N20,6NE-10
2019-03-13 19:00:0016,738,41023,2010,9NE23,5N50
2019-03-13 18:00:0017,834,21022,6013,1NE28,1N180,1
2019-03-13 17:00:0019,031,81022,2014,5NE35,4N1690,6
2019-03-13 16:00:0020,729,21022,5015,8NE29,1NE5191,9
2019-03-13 15:00:0021,028,51022,9013,7N28,4NE6443,1
2019-03-13 14:00:0020,232,11023,7015,7N28,5N7153,9
2019-03-13 13:00:0019,240,51024,7014,4N30,2N7164,1
2019-03-13 12:00:0017,646,81025,6014,5NE29,3N6623,5
2019-03-13 11:00:0016,047,61026,1012,2N33,5N5742,5
2019-03-13 10:00:0013,948,81026,3018,5N31,1N4271,3
2019-03-13 09:00:0011,857,11026,40,213,0N29,3N2280,4
2019-03-13 08:00:0011,368,51026,0015,8N32,0N740,0
2019-03-13 07:00:0012,175,71025,4013,3N28,1N10,0
2019-03-13 06:00:0012,583,11025,0011,9N30,6NE00
2019-03-13 05:00:0010,589,11024,604,9N14,3N00
2019-03-13 04:00:0011,084,51024,503,9NW14,0NW00
2019-03-13 03:00:0011,977,81024,908,9N20,4N00
2019-03-13 02:00:0011,280,21025,106,7N14,5N00
2019-03-13 01:00:0010,987,31025,102,9N12,0NE00
2019-03-13 00:00:0011,686,71025,102,2N6,2NW-10
2019-03-12 23:00:0012,285,11024,803,7NW10,5NW00
2019-03-12 22:00:0012,483,51024,404,3NW9,8NW00
2019-03-12 21:00:0013,179,01023,604,8NW10,1NW00
2019-03-12 20:00:0014,171,61022,805,5NW13,0NW00
2019-03-12 19:00:0016,261,21021,909,0NW22,3NW50
2019-03-12 18:00:0018,949,31021,0011,3NW24,4NW180,1
2019-03-12 17:00:0021,340,91020,5010,1NW23,3N1290,7
2019-03-12 16:00:0022,555,51020,907,9W22,0W4852,1
2019-03-12 15:00:0021,267,21021,6011,6SW20,3S6153,4
2019-03-12 14:00:0021,762,71022,5011,7SW21,2SW6764,3
2019-03-12 13:00:0021,661,31023,409,3S17,6S6864,5
2019-03-12 12:00:0021,960,11023,907,5S15,5S6384,0
2019-03-12 11:00:0020,663,41024,505,7S11,4S5412,8
2019-03-12 10:00:0018,277,41025,003,0E8,8SE4031,5
2019-03-12 09:00:0014,287,51025,302,4NE5,3N2420,5
2019-03-12 08:00:0010,794,01025,202,0NE7,1E850,0
2019-03-12 07:00:009,793,61024,602,6E8,3E10
2019-03-12 06:00:0010,092,71024,502,5NE6,5NE00
2019-03-12 05:00:0010,393,51024,203,7N7,6N00
2019-03-12 04:00:0010,893,41024,203,1N5,4N00
2019-03-12 03:00:0011,492,01024,301,8N6,2NE00
2019-03-12 02:00:0012,290,71024,103,4N6,7N00
2019-03-12 01:00:0012,889,41024,203,5NW11,5NW00
2019-03-12 00:00:0013,589,01024,303,3NW6,6N00
2019-03-11 23:00:0014,586,81024,302,6NW9,8N00
2019-03-11 22:00:0015,385,41023,802,9NW8,5NW-10
2019-03-11 21:00:0016,681,41023,004,0NW8,1NW-10
2019-03-11 20:00:0019,067,71022,303,4NW11,9N00
2019-03-11 19:00:0021,851,51022,005,1NE10,8E40,0
2019-03-11 18:00:0023,644,91021,507,5NE16,5NE150,1
2019-03-11 17:00:0025,041,71021,209,9NE20,9N1170,8
2019-03-11 16:00:0026,937,51021,409,6NE18,2E4842,3
2019-03-11 15:00:0026,940,21021,8010,4NE21,7NE6203,7
2019-03-11 14:00:0026,044,01022,6011,9N22,1NE6854,7
2019-03-11 13:00:0025,247,81023,508,9N21,5N6904,9
2019-03-11 12:00:0023,252,21024,306,9NE15,9NE6384,2
2019-03-11 11:00:0020,559,41024,807,8E14,8E5453,0
2019-03-11 10:00:0017,667,11025,108,6NE17,3NE4071,6
2019-03-11 09:00:0014,280,81025,506,9NE16,8NE2450,5
2019-03-11 08:00:0010,892,61025,504,7NE14,5NE800,0
2019-03-11 07:00:009,892,91025,003,3NE10,1N10
2019-03-11 06:00:0010,789,21024,702,0N5,0NE00
2019-03-11 05:00:0011,890,21024,504,7NE9,3NE00
2019-03-11 04:00:0011,593,61024,805,1NE10,0E00
2019-03-11 03:00:0012,292,51024,605,2N9,9NE00
2019-03-11 02:00:0012,890,51024,705,6N11,8N-10
2019-03-11 01:00:0013,789,01025,005,4N13,8N00
2019-03-11 00:00:0013,589,71025,005,9N11,2N00
2019-03-10 23:00:0013,788,91025,104,7N10,6N00
2019-03-10 22:00:0014,386,41024,902,0NW7,3N00
2019-03-10 21:00:0015,382,01024,303,4NW8,3NW00
2019-03-10 20:00:0016,876,31023,806,5NW14,7NW00
2019-03-10 19:00:0019,070,11023,108,4NW19,1NW40
2019-03-10 18:00:0021,859,91022,508,0N18,7NW170,1
2019-03-10 17:00:0024,143,31022,507,5NE18,7N950,7
2019-03-10 16:00:0026,438,01023,007,2NE15,0NE4892,1
2019-03-10 15:00:0026,337,41023,709,7NE18,8NE6103,4
2019-03-10 14:00:0025,338,21024,609,4NE21,6NE6764,3
2019-03-10 13:00:0024,639,41025,708,9NE17,5NE6784,5
2019-03-10 12:00:0023,543,21026,309,4NE19,8N6263,8
2019-03-10 11:00:0021,451,41026,703,7E12,2NE5332,7
2019-03-10 10:00:0018,563,41027,002,2SW6,4S3941,3
2019-03-10 09:00:0013,777,41027,401,4E10,2N2340,4
2019-03-10 08:00:0011,086,01027,101,9SE4,2E720,0
2019-03-10 07:00:0012,478,31026,906,2E16,0NE10
2019-03-10 06:00:0011,684,81026,807,5NE16,9E00
2019-03-10 05:00:0010,094,41026,806,8E11,7NE-10
2019-03-10 04:00:009,195,51026,803,9E9,2E-10
2019-03-10 03:00:009,394,61027,001,8NE4,0N00
2019-03-10 02:00:009,794,11027,002,3N6,9N00
2019-03-10 01:00:0010,193,31027,501,5N4,0N00
2019-03-10 00:00:0010,791,91027,802,1NE11,7NE-10
2019-03-09 23:00:0011,490,71027,502,0N9,4N00
2019-03-09 22:00:0012,388,61027,302,4NE4,0NE00
2019-03-09 21:00:0013,384,21026,702,0NE4,4NE00
2019-03-09 20:00:0014,279,11026,002,3NW7,5W00
2019-03-09 19:00:0015,672,61025,603,9W10,0SW50
2019-03-09 18:00:0016,969,11025,204,1SW11,7SW200,1
2019-03-09 17:00:0018,065,51025,006,2SW12,3SW940,6
2019-03-09 16:00:0020,557,21025,007,8SW15,7SE4812,0
2019-03-09 15:00:0020,754,41025,209,8S16,7SW5943,3
2019-03-09 14:00:0020,955,41025,8010,3S19,2S6594,2
2019-03-09 13:00:0020,752,21026,3011,4S20,1S6644,4
2019-03-09 12:00:0021,049,61026,705,8S16,3SW6133,8
2019-03-09 11:00:0019,454,21027,204,7E11,4E5212,7
2019-03-09 10:00:0016,666,81027,504,1E13,4SE3861,4
2019-03-09 09:00:0012,382,91027,702,0E7,8NE2300,4
2019-03-09 08:00:009,291,01027,602,4E7,8NE700,0
2019-03-09 07:00:008,790,81026,903,4NE6,8NE10
2019-03-09 06:00:009,587,01026,302,1E5,6NE00
2019-03-09 05:00:0010,384,41026,105,4NE12,1NE-10
2019-03-09 04:00:0010,981,11026,105,9NE16,5NE00
2019-03-09 03:00:0011,082,21026,2011,8NE22,7N00
2019-03-09 02:00:0010,684,71026,003,5NE12,5NE00
2019-03-09 01:00:0010,188,91026,104,6NE11,8NE00
2019-03-09 00:00:0010,288,71025,402,0NW7,6NW00
2019-03-08 23:00:0011,186,31025,102,6E7,4NE00
2019-03-08 22:00:0011,487,01024,204,7N9,6N00
2019-03-08 21:00:0012,482,91023,303,7NW8,4NW00
2019-03-08 20:00:0014,367,81022,705,5NW11,9NE00
2019-03-08 19:00:0015,960,11021,909,5N22,1N110
2019-03-08 18:00:0016,956,71020,5011,9N25,9N530,1
2019-03-08 17:00:0017,953,31019,7015,0N30,7N1140,6
2019-03-08 16:00:0019,549,91019,4014,4N32,0N4561,9
2019-03-08 15:00:0019,451,31017,8015,5NE26,3NE5332,8
2019-03-08 14:00:0018,555,31019,3013,7NE27,2NE5653,4
2019-03-08 13:00:0017,260,11020,5014,2NE27,3NE5123,3
2019-03-08 12:00:0016,665,61020,8013,7NE30,6N5202,9
2019-03-08 11:00:0015,570,51020,5016,1N28,9NE4281,9
2019-03-08 10:00:0014,774,01020,7014,6N29,2N3861,1
2019-03-08 09:00:0012,184,21020,507,0N20,8NE1530,2
2019-03-08 08:00:009,291,71020,002,1NW8,2N410,0
2019-03-08 07:00:009,189,81019,102,9N8,8N10
2019-03-08 06:00:0010,287,01018,203,1SW12,4N00
2019-03-08 05:00:0011,085,51017,9012,0N28,5N00
2019-03-08 04:00:0010,388,51017,8012,2N21,4N00
2019-03-08 03:00:009,792,41017,9012,4N30,2N00
2019-03-08 02:00:009,097,81017,7013,9N25,9N00
2019-03-08 01:00:008,799,41017,5013,8N23,2N00
2019-03-08 00:00:009,699,61016,907,8NW16,0N00
2019-03-07 23:00:0010,399,51016,307,6N16,8NW00
2019-03-07 22:00:0011,299,11015,50,28,9NW17,0NW00
2019-03-07 21:00:0012,898,91014,50,611,5W32,3SW00
2019-03-07 20:00:0012,797,81014,71,410,9SW24,6SW00
2019-03-07 19:00:0012,993,91014,62,49,3SW26,5SW10
2019-03-07 18:00:0014,776,51014,51,210,1SW23,2W300,0
2019-03-07 17:00:0015,768,91014,2011,4SW24,6SW1040,2
2019-03-07 16:00:0017,360,31014,5013,9SW26,9SW3401,0
2019-03-07 15:00:0016,464,21015,4012,7SW28,9SW2841,0
2019-03-07 14:00:0016,965,71016,3011,5SW28,4SW3381,6
2019-03-07 13:00:0017,464,91017,1012,6SW25,7SW5162,3
2019-03-07 12:00:0016,565,61017,7010,8SW22,7SW4762,0
2019-03-07 11:00:0014,386,21018,007,3W19,2NW4751,6
2019-03-07 10:00:0011,999,01018,701,9NW10,9NW3740,8
2019-03-07 09:00:009,1100,01019,201,4N6,6N2140,2
2019-03-07 08:00:007,4100,01018,80,21,7E5,0NE640,0
2019-03-07 07:00:006,7100,01018,501,3NE3,2NE00
2019-03-07 06:00:006,899,91018,401,9E4,3NE00
2019-03-07 05:00:007,099,81018,101,3N8,8NE00
2019-03-07 04:00:007,699,71017,902,2NW8,6NW00
2019-03-07 03:00:008,199,51018,102,2NW8,7NW00
2019-03-07 02:00:008,299,21018,302,6NW5,6NW00
2019-03-07 01:00:008,698,91018,203,0NW9,3NE00
2019-03-07 00:00:008,898,41018,102,7W7,2W00
2019-03-06 23:00:009,297,61017,903,0W6,1W00
2019-03-06 22:00:009,894,81017,40,23,9NW12,7W00
2019-03-06 21:00:0010,787,21016,71,26,3W19,2W00
2019-03-06 20:00:0011,385,01015,508,0NW20,0W00
2019-03-06 19:00:0011,882,11014,006,5NW26,3NW60
2019-03-06 18:00:0014,364,11012,9012,0NW36,3NW530,0
2019-03-06 17:00:0015,155,71012,1014,6NW37,7NW1160,4
2019-03-06 16:00:0016,451,71011,1017,2NW37,0N4091,2
2019-03-06 15:00:0017,053,31010,4017,6NW43,9NW4391,8
2019-03-06 14:00:0017,257,61009,9018,9NW43,1NW5882,7
2019-03-06 13:00:0015,872,91010,1015,4NW39,0NW5482,5
2019-03-06 12:00:0013,688,31010,2018,0NW42,3NW3721,6
2019-03-06 11:00:0014,293,01009,30,416,1NW43,1W2620,9
2019-03-06 10:00:0014,492,01008,60,414,0W45,9W1740,4
2019-03-06 09:00:0015,491,51007,70,215,4W36,6NW1700,1
2019-03-06 08:00:0014,694,91007,3013,5SW29,5SW210,0
2019-03-06 07:00:0014,594,91007,2016,6SW46,4SW00
2019-03-06 06:00:0014,494,31007,00,417,1SW35,7SW00
2019-03-06 05:00:0014,194,81007,40,614,6SW37,4SW00
2019-03-06 04:00:0015,095,21007,50,215,0SW35,9SW00
2019-03-06 03:00:0015,192,91007,7018,1SW44,3SW00
2019-03-06 02:00:0015,393,41008,70,215,7S35,2S-10
2019-03-06 01:00:0015,293,11009,4013,2S24,0S00
2019-03-06 00:00:0015,292,81010,1014,0SW26,6SW00
2019-03-05 23:00:0014,993,71010,8012,1SW26,7SW-10
2019-03-05 22:00:0014,995,21011,1012,6S23,8S00
2019-03-05 21:00:0014,996,81011,2013,0SW24,4SW00
2019-03-05 20:00:0014,997,71011,409,7S20,8SW00
2019-03-05 19:00:0015,297,31011,4010,1S20,6SW40
2019-03-05 18:00:0015,696,81011,6011,2S27,9SW410,0
2019-03-05 17:00:0016,397,01012,2010,7SW21,4SW1130,3
2019-03-05 16:00:0016,598,21012,9010,1SW24,8SW2020,8
2019-03-05 15:00:0016,398,81013,4010,5SW21,8S1670,9
2019-03-05 14:00:0016,298,61014,10,610,6SW21,8SW1590,9
2019-03-05 13:00:0016,496,71014,91,212,2SW23,8SW1190,7
2019-03-05 12:00:0016,797,81015,6011,9SW23,9SW2311,4
2019-03-05 11:00:0016,498,51016,0010,2SW24,1SW1560,8
2019-03-05 10:00:0015,999,41016,40,29,0SW21,5SW1640,6
2019-03-05 09:00:0014,999,41016,70,83,8SW15,7SW350,0
2019-03-05 08:00:0014,099,11016,90,22,7SE9,1SE90
2019-03-05 07:00:0013,798,91016,902,1E4,8E00
2019-03-05 06:00:0013,598,61017,101,9E4,6SE00
2019-03-05 05:00:0013,598,31017,30,21,4N9,6NW00
2019-03-05 04:00:0013,698,41017,502,1W6,2SW00
2019-03-05 03:00:0013,198,21017,803,0SW6,0SW00
2019-03-05 02:00:0012,897,91018,102,7S6,1S00
2019-03-05 01:00:0013,297,21018,401,8SW8,3SW00
2019-03-05 00:00:0013,397,11018,802,7W6,6SW00
2019-03-04 23:00:0013,397,11019,102,8W7,0W00
2019-03-04 22:00:0013,196,31019,103,7W7,8NW00
2019-03-04 21:00:0013,793,61018,603,8W11,3W00
2019-03-04 20:00:0015,089,91018,505,9NW15,1W-10
2019-03-04 19:00:0015,884,01018,104,8NW12,7NW50
2019-03-04 18:00:0016,882,91017,906,8W16,2W550,1
2019-03-04 17:00:0017,686,11018,008,6SW18,9W1380,4
2019-03-04 16:00:0017,988,91018,108,3SW18,9SW1940,9
2019-03-04 15:00:0017,892,81018,509,1SW21,6S3421,9
2019-03-04 14:00:0017,296,71019,5010,3SW21,0SW3131,7
2019-03-04 13:00:0016,496,01020,20,49,9SW20,7SW1671,1
2019-03-04 12:00:0016,694,11020,70,88,9SW20,4SW2291,3
2019-03-04 11:00:0016,391,51021,107,6SW15,5S1490,6
2019-03-04 10:00:0015,889,61021,307,6W15,5SW1780,5
2019-03-04 09:00:0013,590,71021,402,2NW13,2NW960,1
2019-03-04 08:00:0011,692,51021,201,0E2,8E280,0
2019-03-04 07:00:0011,292,11021,000,6E2,3SE00
2019-03-04 06:00:0011,192,01020,801,9E3,7E00
2019-03-04 05:00:0010,793,81020,701,6E4,1E-10
2019-03-04 04:00:0010,695,41020,502,0E4,3E00
2019-03-04 03:00:0011,196,11021,001,3SE3,9E00
2019-03-04 02:00:0011,694,61020,903,0W8,8NW00
2019-03-04 01:00:0012,292,51021,206,6NW20,4NW00
2019-03-04 00:00:0011,990,91021,308,9NW20,2W-10
2019-03-03 23:00:0011,888,71021,306,9NW16,1N00
2019-03-03 22:00:0011,982,21021,007,6NW17,9NW00
2019-03-03 21:00:0012,076,31020,304,3NW10,5NW00
2019-03-03 20:00:0013,476,91019,605,6NW13,3NW-10
2019-03-03 19:00:0014,975,71018,809,8NW24,9NW100
2019-03-03 18:00:0016,766,51018,608,1NW21,7NW490,0
2019-03-03 17:00:0018,460,31018,6011,2NW25,6NW970,4
2019-03-03 16:00:0020,958,81018,8011,0W28,4NW4351,4
2019-03-03 15:00:0021,158,21019,2010,4SW18,7SW5422,6
2019-03-03 14:00:0020,560,21019,8011,8SW22,2SW6563,6
2019-03-03 13:00:0020,561,61020,4010,0SW17,9SW6303,6
2019-03-03 12:00:0020,860,51020,907,7S14,8SW5853,1
2019-03-03 11:00:0019,365,41021,804,6E11,6SE4922,1
2019-03-03 10:00:0014,586,41022,602,3NE9,2E3651,0
2019-03-03 09:00:0010,499,01023,302,8NE6,6NE2330,2
2019-03-03 08:00:007,799,11023,302,8NE7,7NE560,0
2019-03-03 07:00:007,598,81023,001,4N2,9NE00
2019-03-03 06:00:007,898,61022,502,4N7,7NW00
2019-03-03 05:00:008,298,21022,301,8NE10,2NE-10
2019-03-03 04:00:008,898,01022,202,3NE10,2N-10
2019-03-03 03:00:009,397,31022,401,7NE14,1NE00
2019-03-03 02:00:0010,296,81022,602,3NE8,8NW00
2019-03-03 01:00:0010,796,01022,403,8NW10,8NW00
2019-03-03 00:00:0011,294,31022,204,0NW10,6NW00
2019-03-02 23:00:0012,092,51022,104,7NW13,5NW00
2019-03-02 22:00:0012,591,11022,005,0NW11,7NW-10
2019-03-02 21:00:0013,488,21021,806,1NW13,1NW00
2019-03-02 20:00:0014,883,11021,208,5NW20,7NW-10
2019-03-02 19:00:0017,372,01020,507,8NW18,1NW30
2019-03-02 18:00:0019,659,11020,208,7N19,5NE160,1
2019-03-02 17:00:0020,263,11019,807,0NW19,5NW740,5
2019-03-02 16:00:0022,555,41020,308,8SW18,1SW4641,4
2019-03-02 15:00:0023,348,61021,106,0W17,2SW5732,6
2019-03-02 14:00:0021,852,21022,207,1NE18,7NE6423,3
2019-03-02 13:00:0020,557,01023,409,9NE21,5E6443,3
2019-03-02 12:00:0019,163,01024,3010,2NE20,6N5912,8
2019-03-02 11:00:0017,269,61024,9010,5NE21,2N4951,9
2019-03-02 10:00:0014,879,31025,108,4NE20,0N2640,8
2019-03-02 09:00:0012,788,71025,208,5N27,1N2160,2
2019-03-02 08:00:0010,694,21024,807,2N16,0N270,0
2019-03-02 07:00:0010,095,71024,505,6N23,9NW00
2019-03-02 06:00:0010,093,81024,102,5SW7,6W00
2019-03-02 05:00:0011,090,61023,802,2SW6,6W00
2019-03-02 04:00:0012,087,81024,206,2NE18,4N-10
2019-03-02 03:00:0010,294,01024,804,2NW21,0N00
2019-03-02 02:00:0010,394,11025,002,2W13,2NW00
2019-03-02 01:00:0010,994,21024,804,1SW11,9SW00
2019-03-02 00:00:0011,592,51024,802,9S5,7S00
2019-03-01 23:00:0011,991,71024,604,4N13,6N00
2019-03-01 22:00:0012,590,31023,803,7W11,7NW00
2019-03-01 21:00:0013,587,21023,308,0NW21,1NW00
2019-03-01 20:00:0013,883,91022,7011,0NW27,4N00
2019-03-01 19:00:0014,578,01022,0012,0NW29,0N30
2019-03-01 18:00:0015,868,81021,0016,1NW33,5NW240,0
2019-03-01 17:00:0017,559,21020,4017,1NW34,1NW870,4
2019-03-01 16:00:0019,553,21020,2016,4NW33,0N3291,2
2019-03-01 15:00:0021,750,31020,409,7NW26,5NW4762,3
2019-03-01 14:00:0021,649,31021,206,2NW17,4N6283,3
2019-03-01 13:00:0019,555,01022,306,2NW15,5NW5813,2
2019-03-01 12:00:0018,256,71023,203,4NW10,5W5762,8
2019-03-01 11:00:0015,266,11023,903,0N10,5NW3211,4
2019-03-01 10:00:0012,976,51024,402,0NE6,2NE1980,6
2019-03-01 09:00:009,791,11024,501,9NE5,0NW1320,1
2019-03-01 08:00:008,195,21024,301,3N9,2W170,0
2019-03-01 07:00:007,695,31024,100,5NW3,6SW00
2019-03-01 06:00:007,394,91023,700,8N3,8NW00
2019-03-01 05:00:007,593,91023,302,0N7,2N00
2019-03-01 04:00:008,092,01023,303,0NW6,3NW00
2019-03-01 03:00:008,791,01023,703,1NW6,9NW00
2019-03-01 02:00:009,188,71023,903,1NW6,4NW00
2019-03-01 01:00:009,686,71023,903,1NW9,8N00
2019-03-01 00:00:0010,085,91024,103,4NW6,1N00
2019-02-28 23:00:0010,685,31024,303,9NW8,4NW00
2019-02-28 22:00:0011,283,41024,204,5NW10,7NW-10
2019-02-28 21:00:0012,180,91023,905,9NW12,9NW00
2019-02-28 20:00:0013,076,71023,606,0NW15,0NW00
2019-02-28 19:00:0014,566,71023,007,4NW15,7NW50
2019-02-28 18:00:0016,756,81022,408,7NW20,6NW470,0
2019-02-28 17:00:0018,749,71022,3010,5NW20,7NW1130,4
2019-02-28 16:00:0020,647,71022,3011,0NW23,0N3871,3
2019-02-28 15:00:0022,445,11023,008,2W17,6NW5362,3
2019-02-28 14:00:0021,845,01024,308,4SW15,4SW5702,9
2019-02-28 13:00:0020,746,61025,408,5SW15,2SW5452,9
2019-02-28 12:00:0020,543,41026,104,9S12,4SW5362,6
2019-02-28 11:00:0019,143,11026,405,9NE13,9NE5051,9
2019-02-28 10:00:0016,152,71026,807,6NE15,9NE3370,8
2019-02-28 09:00:0012,073,91027,202,3NE7,3NE1900,2
2019-02-28 08:00:009,485,51027,103,5NE8,7NE360,0
2019-02-28 07:00:0010,679,21026,703,7NE13,1NE00
2019-02-28 06:00:0011,677,21026,407,9NE17,0NE00
2019-02-28 05:00:0011,780,31026,208,8NE17,7NE00
2019-02-28 04:00:0011,388,21026,207,6NE18,2E00
2019-02-28 03:00:0010,097,31026,505,6NE13,9NE-10
2019-02-28 02:00:009,597,11026,502,9NE8,1NE-10
2019-02-28 01:00:0010,096,51026,502,6NE7,8N00
2019-02-28 00:00:0010,595,91026,304,6NW9,5NW00
2019-02-27 23:00:0010,894,51026,303,6NW9,0NW00
2019-02-27 22:00:0011,593,11026,002,9N6,3NW00
2019-02-27 21:00:0012,391,21025,403,7N7,2NW00
2019-02-27 20:00:0013,591,01024,904,5NW10,0NW00
2019-02-27 19:00:0015,186,41024,204,2SW9,8S60
2019-02-27 18:00:0016,680,51023,804,7SW9,7SW880,0
2019-02-27 17:00:0016,977,51023,806,3SW12,3SW1240,3
2019-02-27 16:00:0018,369,61023,608,6S16,2S2891,0
2019-02-27 15:00:0018,969,11023,5011,6S19,0S4511,9
2019-02-27 14:00:0018,870,01024,209,9S17,0SE4262,2
2019-02-27 13:00:0018,072,51024,707,0S13,2S3421,9
2019-02-27 12:00:0017,672,21025,007,2SE15,0SE2741,5
2019-02-27 11:00:0017,274,01025,208,1E16,7SE2991,2
2019-02-27 10:00:0014,978,81025,204,7E9,8E1980,6
2019-02-27 09:00:0012,586,51024,904,8E16,9E1050,1
2019-02-27 08:00:0010,095,71024,604,0NE15,0NE230
2019-02-27 07:00:009,295,31024,202,0NE5,2NE-10
2019-02-27 06:00:009,794,51023,803,4NE7,6NE-10
2019-02-27 05:00:0010,193,21023,403,8NE7,8NE00
2019-02-27 04:00:0010,991,81023,004,5NE11,4E00
2019-02-27 03:00:0010,991,51023,203,7NE11,0E00
2019-02-27 02:00:0011,589,11022,805,7E16,1E-10
2019-02-27 01:00:0013,386,21022,806,5E14,0SE-10
2019-02-27 00:00:0014,084,61022,708,7SE15,7SE00
2019-02-26 23:00:0014,679,41022,6010,3SE24,3SE00
2019-02-26 22:00:0015,075,61022,6011,8SE22,7SE00
2019-02-26 21:00:0014,876,21021,809,7SE19,4NE-10
2019-02-26 20:00:0014,878,21021,209,8SE20,3E00
2019-02-26 19:00:0015,377,21020,8011,7SE26,1E60
2019-02-26 18:00:0015,875,61020,6012,8SE29,4E550,0
2019-02-26 17:00:0016,471,01020,2015,7SE30,9SE1470,3
2019-02-26 16:00:0016,668,61020,0020,9SE45,1E2311,0
2019-02-26 15:00:0017,166,91020,1021,8SE40,7E4122,1
2019-02-26 14:00:0017,267,01020,9020,9SE39,4E5072,8
2019-02-26 13:00:0017,464,41021,6021,0SE39,4E6173,3
2019-02-26 12:00:0016,962,91022,0021,7SE38,9E6172,9
2019-02-26 11:00:0016,162,71022,5019,3SE36,7SE5011,8
2019-02-26 10:00:0014,964,81023,0015,8SE34,0E3500,8
2019-02-26 09:00:0012,370,01022,809,1E21,5E1720,2
2019-02-26 08:00:0010,677,81022,307,9E17,2E320,0
2019-02-26 07:00:0010,779,51022,207,9E16,1E-10
2019-02-26 06:00:0010,081,21022,207,9E17,3E00
2019-02-26 05:00:0010,080,31022,206,6E15,8SE00
2019-02-26 04:00:0010,379,11022,808,5E13,5NE-10
2019-02-26 03:00:0010,378,71023,407,0E13,1E00
2019-02-26 02:00:0011,175,21023,607,1NE13,3E-10
2019-02-26 01:00:0011,773,71023,608,5E14,1NE-10
2019-02-26 00:00:0012,372,21023,808,4E20,0E00
2019-02-25 23:00:0013,070,81023,908,0E16,3NE00
2019-02-25 22:00:0013,072,81023,808,4E16,5NE00
2019-02-25 21:00:0013,372,41023,507,0E15,2E-10
2019-02-25 20:00:0014,471,11023,207,6E15,1SE-10
2019-02-25 19:00:0015,569,91022,5010,0SE22,6SE10
2019-02-25 18:00:0016,762,01022,2015,2SE28,3SE180,0
2019-02-25 17:00:0017,656,61022,1015,3SE29,6SE970,4
2019-02-25 16:00:0019,051,51021,9016,6SE30,9SE3631,4
2019-02-25 15:00:0020,147,01022,5017,7SE33,4SE5662,6
2019-02-25 14:00:0020,344,01023,2018,5SE36,2SE6333,4
2019-02-25 13:00:0019,543,71024,2020,5SE36,7E6343,4
2019-02-25 12:00:0019,143,01025,1020,1SE40,8S5812,9
2019-02-25 11:00:0018,740,01025,6013,0E33,0SE4851,9
2019-02-25 10:00:0015,948,91026,106,5E13,4E3410,9
2019-02-25 09:00:0011,367,21026,606,4E14,2NE1850,2
2019-02-25 08:00:008,277,41026,304,3E10,5E290,0
2019-02-25 07:00:009,074,01025,905,5NE11,8NE00
2019-02-25 06:00:008,881,11025,605,4NE10,3NE-10
2019-02-25 05:00:009,281,61025,506,0E16,4E00
2019-02-25 04:00:009,286,01025,704,7E13,2NE00
2019-02-25 03:00:009,090,01026,105,0NE10,2NE-10
2019-02-25 02:00:008,890,71026,303,1NE9,1NE00
2019-02-25 01:00:009,488,11026,501,8NE7,9NE-10
2019-02-25 00:00:009,685,81026,502,9E6,2NE00
2019-02-24 23:00:0010,679,91026,402,6NE6,0E00
2019-02-24 22:00:0011,279,71026,103,7NE8,6NE-10
2019-02-24 21:00:0011,782,61025,303,3NE7,4NE00
2019-02-24 20:00:0013,077,41024,401,0NE6,9E00
2019-02-24 19:00:0015,068,01023,601,1E7,0E20
2019-02-24 18:00:0016,764,31023,107,1SE14,5SE260,0
2019-02-24 17:00:0017,562,91022,5012,2SE27,7S860,4
2019-02-24 16:00:0019,351,81021,9013,4SE26,7SE3351,3
2019-02-24 15:00:0020,748,11022,0012,7S22,3SE5372,5
2019-02-24 14:00:0021,943,81022,4014,4S27,3S6093,3
2019-02-24 13:00:0024,236,41023,107,0NE15,9NE6113,4
2019-02-24 12:00:0022,939,61024,006,7NE14,6N5612,9
2019-02-24 11:00:0020,350,11024,304,5E13,8NE4761,9
2019-02-24 10:00:0015,172,51024,804,6N18,0N3330,9
2019-02-24 09:00:008,696,91025,701,2NE8,3N1860,1
2019-02-24 08:00:006,497,41025,301,6E5,0NE300,0
2019-02-24 07:00:006,597,11024,701,6E4,9E00
2019-02-24 06:00:006,696,51024,401,1E3,9SE00
2019-02-24 05:00:007,196,31024,401,2E4,9E00
2019-02-24 04:00:007,396,11024,401,6E4,9N00
2019-02-24 03:00:007,695,71024,802,1N5,5NW00
2019-02-24 02:00:008,294,61025,101,3NE3,2N00,0
2019-02-24 01:00:008,893,01025,201,5E4,6E00
2019-02-24 00:00:009,290,61025,201,1E4,3E00
2019-02-23 23:00:009,887,71025,002,3N5,0N00
2019-02-23 22:00:0010,785,61025,201,9N5,4N-10
2019-02-23 21:00:0012,083,61025,002,1NE4,4N00
2019-02-23 20:00:0013,073,51024,602,0E6,1NE00
2019-02-23 19:00:0015,065,41024,004,3SW15,2SW30
2019-02-23 18:00:0017,656,91023,603,6SW8,5W470,0
2019-02-23 17:00:0018,851,71023,603,3SW9,9SW1480,4
2019-02-23 16:00:0019,651,31023,707,0S10,7S2831,1
2019-02-23 15:00:0020,750,41024,106,2S10,2S4252,0
2019-02-23 14:00:0020,556,11024,805,3S10,1SW5062,6
2019-02-23 13:00:0019,958,51025,503,9SW8,7SW3942,3
2019-02-23 12:00:0019,258,51026,203,7S16,6SW4012,1
2019-02-23 11:00:0016,966,81026,502,1E5,1SE3661,5
2019-02-23 10:00:0012,189,61027,001,5E3,9SE3160,7
2019-02-23 09:00:008,899,01027,301,6E6,4SE1490,1
2019-02-23 08:00:007,399,11027,102,0E6,6E290,0
2019-02-23 07:00:007,499,01026,903,2E5,6E00
2019-02-23 06:00:007,498,61026,803,0E6,7E00
2019-02-23 05:00:007,698,31026,602,7E5,2E00
2019-02-23 04:00:007,897,91026,602,9E4,9E00
2019-02-23 03:00:008,397,51026,602,8E4,9E00
2019-02-23 02:00:008,696,71026,602,7E5,4E00
2019-02-23 01:00:009,295,91026,602,7E5,0E00
2019-02-23 00:00:009,994,51026,601,5E4,6NE00
2019-02-22 23:00:0010,692,81026,602,5E5,7NE00
2019-02-22 22:00:0011,590,81026,503,9NE6,8NE-10
2019-02-22 21:00:0012,288,11026,103,8NE6,3E00
2019-02-22 20:00:0013,583,11025,704,1E10,5E-10
2019-02-22 19:00:0015,276,61025,006,4SE15,4E50
2019-02-22 18:00:0016,274,71024,6011,4SE23,1SE710,0
2019-02-22 17:00:0016,874,21024,4015,3SE28,9SE1420,4
2019-02-22 16:00:0017,671,71024,0016,1SE27,3E3051,2
2019-02-22 15:00:0018,468,81023,8017,0SE31,8SE4832,2
2019-02-22 14:00:0018,070,21023,8017,2SE37,5SE5793,0
2019-02-22 13:00:0017,372,91024,1019,6SE37,7SE5562,9
2019-02-22 12:00:0017,074,31024,6017,7SE36,1E4972,4
2019-02-22 11:00:0016,077,51024,8019,2SE45,8E4151,5
2019-02-22 10:00:0014,781,81025,3015,6SE34,2SE2770,7
2019-02-22 09:00:0012,588,91025,609,1E29,1E1790,1
2019-02-22 08:00:0011,491,51025,108,0E18,0E140
2019-02-22 07:00:0011,792,51024,608,6E20,4E00
2019-02-22 06:00:0012,192,31024,608,7E20,5E00
2019-02-22 05:00:0011,894,21024,408,0E19,8E-10
2019-02-22 04:00:0011,396,01024,507,3E14,4E00
2019-02-22 03:00:0011,295,41024,806,8NE14,8E00,0
2019-02-22 02:00:0011,695,31025,2010,0E17,4E00
2019-02-22 01:00:0011,696,01025,406,4NE14,9E-10
2019-02-22 00:00:0011,895,41025,106,9NE12,5E-10
2019-02-21 23:00:0012,094,21025,206,4NE11,1E00
2019-02-21 22:00:0012,492,61025,006,0E10,5E00
2019-02-21 21:00:0013,091,21024,405,7NE11,2NE-10
2019-02-21 20:00:0013,988,51023,606,7E17,2E00
2019-02-21 19:00:0014,984,01022,909,0E17,1SE30
2019-02-21 18:00:0015,979,31021,7012,3SE26,3S580,0
2019-02-21 17:00:0016,575,71020,7017,5SE39,3SE1210,3
2019-02-21 16:00:0017,572,21020,3020,3SE42,2SE2901,1
2019-02-21 15:00:0018,369,71020,1020,5SE39,8SE5022,1
2019-02-21 14:00:0018,469,91020,7018,5SE35,8SE5792,7
2019-02-21 13:00:0017,473,11021,4016,9SE33,0SE4422,3
2019-02-21 12:00:0017,373,21021,4018,0SE37,8SE4552,1
2019-02-21 11:00:0016,176,21021,6016,2SE33,4SE3561,2
2019-02-21 10:00:0014,281,21021,8013,4SE26,4E1880,3
2019-02-21 09:00:0012,785,91021,608,8E21,0E730,0
2019-02-21 08:00:0012,490,11020,808,6E22,9E130
2019-02-21 07:00:0011,792,51020,407,2E14,5E-10
2019-02-21 06:00:0011,492,71020,308,2E15,0E-10
2019-02-21 05:00:0011,093,91020,208,1E17,9E00
2019-02-21 04:00:0010,794,71020,708,5E21,1E00
2019-02-21 03:00:0010,195,61021,007,1E16,4E00
2019-02-21 02:00:009,295,11021,205,4E13,3E00
2019-02-21 01:00:009,293,51021,302,2NE5,4NE00
2019-02-21 00:00:009,792,91020,803,8E11,0NE00
2019-02-20 23:00:0010,391,81020,804,1E9,1E-10
2019-02-20 22:00:0010,890,01020,602,6E6,8E00
2019-02-20 21:00:0012,186,31020,004,3E11,4E00
2019-02-20 20:00:0012,884,91019,605,9E12,8E-10
2019-02-20 19:00:0014,079,31019,106,7E16,1SE40
2019-02-20 18:00:0015,175,61018,7011,2SE19,3E370,0
2019-02-20 17:00:0015,972,91018,5012,4SE24,7SE900,2
2019-02-20 16:00:0016,869,81018,2012,9SE24,5E2610,9
2019-02-20 15:00:0017,765,81018,2014,5SE27,8SE4221,6
2019-02-20 14:00:0017,865,91018,7013,1SE27,8SE4802,1
2019-02-20 13:00:0016,870,31019,4012,1SE22,1SE3521,7
2019-02-20 12:00:0016,867,71019,8012,2SE26,0SE3511,5
2019-02-20 11:00:0014,983,91020,005,3E11,7E3401,1
2019-02-20 10:00:0010,898,01020,503,5E9,4E3150,5
2019-02-20 09:00:008,099,91020,502,1E6,6E1150,1
2019-02-20 08:00:006,999,91019,902,2E6,2E210
2019-02-20 07:00:006,699,71019,302,9E8,7E00
2019-02-20 06:00:006,799,41019,002,1E8,3NE00
2019-02-20 05:00:007,199,21018,501,2N3,4N00
2019-02-20 04:00:007,999,21018,601,8NE4,9E-10
2019-02-20 03:00:008,098,91018,803,3E10,0E00
2019-02-20 02:00:008,298,41018,902,8NE5,9NE00
2019-02-20 01:00:008,798,01018,802,3E3,9E00
2019-02-20 00:00:009,197,11018,702,1E4,5E00
2019-02-19 23:00:009,796,01018,801,5NE5,1E00
2019-02-19 22:00:0010,394,41018,401,5N5,2N00
2019-02-19 21:00:0011,092,71017,904,0N9,1N00
2019-02-19 20:00:0011,990,71017,403,8NW11,7N00
2019-02-19 19:00:0013,187,21016,704,5W8,9NW10
2019-02-19 18:00:0014,679,11015,905,3SW14,2SW290,0
2019-02-19 17:00:0015,671,81015,405,9SW12,0S800,2
2019-02-19 16:00:0017,166,21015,107,7SW13,6S2640,8
2019-02-19 15:00:0018,462,91015,407,9S17,8S4851,7
2019-02-19 14:00:0018,563,61015,907,9S15,2S5432,2
2019-02-19 13:00:0018,166,01016,508,5S15,7S5472,3
2019-02-19 12:00:0017,668,41016,907,5S15,6SW4991,8
2019-02-19 11:00:0015,880,11017,503,7E8,0E4131,2
2019-02-19 10:00:0012,694,61018,203,6E7,9E2740,4
2019-02-19 09:00:0010,399,01018,402,3E10,4E1520,1
2019-02-19 08:00:008,998,91018,003,0NE6,3NE160
2019-02-19 07:00:008,998,21017,703,3NE5,7NE-10
2019-02-19 06:00:009,797,71017,503,6E6,5E-10
2019-02-19 05:00:009,996,31017,303,2NE8,7NE00
2019-02-19 04:00:0011,095,01017,103,8NE9,4NE00
2019-02-19 03:00:0011,594,21017,004,5NE10,4N00
2019-02-19 02:00:0012,092,81017,105,5E12,7NE00
2019-02-19 01:00:0012,191,21016,906,5NE15,0NE00
2019-02-19 00:00:0012,091,51016,509,6NE21,0NE00
2019-02-18 23:00:0012,389,71016,209,2NE22,2NE00
2019-02-18 22:00:0012,190,31015,5010,3NE20,7NE-10
2019-02-18 21:00:0012,189,71014,5011,4NE23,3NE00
2019-02-18 20:00:0011,693,41013,907,5NE16,8NE00
2019-02-18 19:00:0012,194,51013,109,4E19,2E20
2019-02-18 18:00:0012,896,41012,308,8NE20,3E610,0
2019-02-18 17:00:0013,296,71011,90,46,9NE27,2E1230,1
2019-02-18 16:00:0012,695,11011,70,83,1W10,0SW580,1
2019-02-18 15:00:0012,990,71011,60,47,2N18,6N1200,4
2019-02-18 14:00:0012,390,51011,8011,2NE27,1NE1170,4
2019-02-18 13:00:0012,693,91012,5012,9NE34,6N3351,3
2019-02-18 12:00:0011,198,21012,90,210,2N30,2E2330,9
2019-02-18 11:00:0010,299,01013,00,416,6E36,9E1180,3
2019-02-18 10:00:009,699,51013,5112,7E28,0NE420,0
2019-02-18 09:00:009,599,81013,70,69,0NE20,7NE180,0
2019-02-18 08:00:009,499,91013,42,26,4N13,5NE20
2019-02-18 07:00:009,699,71012,92,66,9NW15,1NW00
2019-02-18 06:00:0010,199,51012,71,810,5NW21,8N00
2019-02-18 05:00:0010,599,21012,45,211,5NW28,5N00
2019-02-18 04:00:0012,399,11012,28,210,8SW36,2NW00
2019-02-18 03:00:0011,899,01013,303,7E7,9E00
2019-02-18 02:00:0011,398,61014,102,6E5,1E00
2019-02-18 01:00:0012,098,11014,502,3S7,3S00
2019-02-18 00:00:0012,497,51014,703,0SW11,5SW00
2019-02-17 23:00:0013,397,11015,202,9SW7,6SW-10
2019-02-17 22:00:0013,396,21015,503,5S8,0SW00
2019-02-17 21:00:0013,694,81015,502,5SW8,5SW-10
2019-02-17 20:00:0014,294,31015,305,7SW12,2SW-10
2019-02-17 19:00:0014,891,61015,007,3S18,2S20
2019-02-17 18:00:0015,787,81014,9010,5SE22,5SE240,0
2019-02-17 17:00:0015,985,41015,2011,7SE23,2SE820,1
2019-02-17 16:00:0015,881,81015,7010,5SE20,6E890,2
2019-02-17 15:00:0016,178,01016,2012,8SE26,9E1900,8
2019-02-17 14:00:0016,376,61017,0015,0SE29,3S2981,3
2019-02-17 13:00:0015,578,01017,8014,9SE28,9SE2321,1
2019-02-17 12:00:0015,478,51018,2015,2SE35,2E1840,8
2019-02-17 11:00:0014,678,91018,6012,7SE31,9SE1490,5
2019-02-17 10:00:0013,581,21019,007,6E18,9E840,1
2019-02-17 09:00:0012,585,41019,107,8E16,5E320,0
2019-02-17 08:00:0012,184,61019,006,7E16,3E30,0
2019-02-17 07:00:0012,085,41018,808,9E20,0E-10
2019-02-17 06:00:0011,786,41019,107,4NE16,2NE00
2019-02-17 05:00:0010,391,61019,005,9NE15,4E00
2019-02-17 04:00:008,994,71019,504,4E10,5E-10
2019-02-17 03:00:008,792,91019,802,9E6,7E-10
2019-02-17 02:00:009,591,11020,004,7NE10,6E00
2019-02-17 01:00:009,789,01020,003,7E11,4E00
2019-02-17 00:00:0011,083,11020,103,4NE7,4NE-10
2019-02-16 23:00:0011,780,21020,004,7NE11,9NE-10
2019-02-16 22:00:0011,879,51019,507,8E18,4NE00
2019-02-16 21:00:0012,276,51019,305,9E11,1E00
2019-02-16 20:00:0013,471,81018,906,1E14,8SE-10
2019-02-16 19:00:0014,667,91018,407,4E15,5SE10
2019-02-16 18:00:0015,864,31018,0013,2SE30,2E220,0
2019-02-16 17:00:0016,658,81017,8016,4SE32,7E640,2
2019-02-16 16:00:0017,655,31017,7019,8SE36,0SE2620,8
2019-02-16 15:00:0019,349,11017,5018,4SE36,9E5101,6
2019-02-16 14:00:0018,952,11017,8017,2SE30,0SE5662,0
2019-02-16 13:00:0018,452,01018,6018,5SE41,5SE5632,1
2019-02-16 12:00:0018,157,51019,3011,8SE32,6E5071,7
2019-02-16 11:00:0016,366,91019,807,3SE18,1SE4051,1
2019-02-16 10:00:0013,084,91020,502,0E5,8E2680,4
2019-02-16 09:00:009,697,21020,503,2E8,8NE860,0
2019-02-16 08:00:008,797,01019,901,5SE4,8SE90
2019-02-16 07:00:009,096,41019,602,7E7,4E00
2019-02-16 06:00:008,996,31019,503,6E12,3E-10
2019-02-16 05:00:008,795,21019,402,4E4,3SE00,0
2019-02-16 04:00:009,193,91019,501,9NE4,4NE00
2019-02-16 03:00:009,592,81019,703,0E5,8E00
2019-02-16 02:00:009,891,71019,702,7E8,1E00
2019-02-16 01:00:009,992,41019,403,7E13,3E00
2019-02-16 00:00:0010,490,01019,502,6E7,9E00
2019-02-15 23:00:0011,087,01019,501,2NE3,8NE00
2019-02-15 22:00:0011,383,81019,501,0N9,7N00
2019-02-15 21:00:0011,681,21019,102,6NW5,6NW00
2019-02-15 20:00:0012,477,61019,102,9NW6,9NW00
2019-02-15 19:00:0013,471,71019,202,1NE10,3SE00
2019-02-15 18:00:0014,965,41018,904,0S8,2SE370,0
2019-02-15 17:00:0016,260,31018,805,7SE12,9SE1160,2
2019-02-15 16:00:0016,660,71018,908,3S20,8S2170,7
2019-02-15 15:00:0017,259,01018,9010,6S21,5SE3601,5
2019-02-15 14:00:0017,162,61019,5011,3S22,4SE4272,0
2019-02-15 13:00:0017,361,01020,8013,7SE28,3SE5132,3
2019-02-15 12:00:0016,566,41022,0013,4SE24,6SE4691,9
2019-02-15 11:00:0015,173,21022,6011,3SE20,0SE3121,0
2019-02-15 10:00:0013,778,31023,007,2E17,2E2640,5
2019-02-15 09:00:0011,390,21023,405,8NE12,7E1730,1
2019-02-15 08:00:0010,196,21022,905,1NE12,8E190
2019-02-15 07:00:0010,296,01022,405,9NE12,5E00
2019-02-15 06:00:0010,795,81022,207,6NE15,0NE-10
2019-02-15 05:00:0010,996,31022,506,7NE14,2E-10
2019-02-15 04:00:0010,896,21022,507,0NE13,8NE00
2019-02-15 03:00:0011,096,51022,607,1NE14,4NE00
2019-02-15 02:00:0010,996,51022,906,2NE12,0NE-10
2019-02-15 01:00:0011,395,61022,805,8NE11,8E00
2019-02-15 00:00:0012,194,21022,707,1E12,4E-10
2019-02-14 23:00:0013,393,01022,708,9E16,9E-10
2019-02-14 22:00:0013,592,51022,609,2SE16,6SE00
2019-02-14 21:00:0013,791,51022,209,2SE18,5SE00
2019-02-14 20:00:0014,088,71021,8010,6SE21,6SE-10
2019-02-14 19:00:0014,585,41021,3012,6SE26,8SE10
2019-02-14 18:00:0015,480,81021,0014,7SE30,7SE200,0
2019-02-14 17:00:0016,376,51021,1017,8SE40,9E490,3
2019-02-14 16:00:0017,372,41021,0018,8SE38,2SE2451,1
2019-02-14 15:00:0018,268,81021,5020,0SE40,7SE4872,1
2019-02-14 14:00:0018,169,11022,0020,0SE36,6SE5152,6
2019-02-14 13:00:0017,869,71022,9019,7SE40,1SE5632,9
2019-02-14 12:00:0017,271,31023,4020,7SE39,4SE5182,4
2019-02-14 11:00:0016,175,61024,0018,4SE38,1E4061,5
2019-02-14 10:00:0014,282,41024,3013,9SE31,1E2290,5
2019-02-14 09:00:0011,989,01024,007,7E16,5E840,0
2019-02-14 08:00:0011,291,51023,708,4E14,0E80
2019-02-14 07:00:0011,392,21023,507,0E16,9E-10
2019-02-14 06:00:0011,292,41023,308,4E16,5NE-10
2019-02-14 05:00:0011,093,41023,208,7E17,1NE00
2019-02-14 04:00:0010,395,21023,409,1E16,9E00
2019-02-14 03:00:0010,295,21023,707,9E13,7E-10
2019-02-14 02:00:0010,095,01024,008,3E14,5E00
2019-02-14 01:00:009,993,91024,305,5E11,2NE00
2019-02-14 00:00:009,891,31024,403,9E10,5E00
2019-02-13 23:00:0010,387,81024,503,1NE8,6E00
2019-02-13 22:00:0011,184,61024,203,9E9,3NE00
2019-02-13 21:00:0011,981,61023,805,6NE10,1NE00
2019-02-13 20:00:0012,779,61023,505,9E9,9E00
2019-02-13 19:00:0014,074,11023,007,4E21,0SE10
2019-02-13 18:00:0015,169,21022,6012,0SE26,2SE150,0
2019-02-13 17:00:0015,865,71022,5014,8SE26,2SE310,3
2019-02-13 16:00:0016,662,81022,1016,3SE31,0SE2361,1
2019-02-13 15:00:0018,256,51022,2016,3SE28,3SE5032,2
2019-02-13 14:00:0018,653,81022,8014,1SE25,4SE5582,8
2019-02-13 13:00:0018,255,31023,8012,6SE25,2S5572,9
2019-02-13 12:00:0017,459,01024,7013,4SE28,6SE5052,4
2019-02-13 11:00:0016,262,81025,507,3E16,7E4171,6
2019-02-13 10:00:0012,976,51026,105,6E15,8NE2730,6
2019-02-13 09:00:008,097,81026,502,6NE10,5NE1390,1
2019-02-13 08:00:006,697,61026,201,6NE5,8E80
2019-02-13 07:00:007,297,21025,902,8E7,6NE00
2019-02-13 06:00:007,596,71025,503,4E6,6E00
2019-02-13 05:00:008,095,51025,402,9E6,9NE-10,0
2019-02-13 04:00:008,993,91025,503,2E8,5E00,0
2019-02-13 03:00:009,893,31025,504,9E9,7E-10
2019-02-13 02:00:0010,394,31025,605,6E10,9E00
2019-02-13 01:00:0010,794,01025,805,6E10,5NE-10
2019-02-13 00:00:0011,291,81025,806,9E15,4E00
2019-02-12 23:00:0011,589,71025,806,6E12,3E00
2019-02-12 22:00:0012,088,41025,705,6E11,0E-10
2019-02-12 21:00:0012,486,71025,505,4NE12,1E00
2019-02-12 20:00:0013,781,61025,105,1E14,4E00
2019-02-12 19:00:0015,175,51024,609,4SE20,5SE10
2019-02-12 18:00:0016,370,71024,0012,6SE24,5SE170,0
2019-02-12 17:00:0016,969,61023,8013,4SE29,6SE360,3
2019-02-12 16:00:0017,766,51023,4013,5SE26,0SE2221,0
2019-02-12 15:00:0019,062,31023,3013,8SE24,8SE4892,0
2019-02-12 14:00:0018,866,21023,9011,9SE22,7SE5192,5
2019-02-12 13:00:0017,969,81024,6014,1SE26,8SE5232,6
2019-02-12 12:00:0017,766,91025,2013,1SE23,9SE4972,1
2019-02-12 11:00:0016,366,41025,709,3SE22,5SE4171,4
2019-02-12 10:00:0011,982,21026,101,9E6,6E2680,5
2019-02-12 09:00:007,397,81026,301,9E5,3E1340,1
2019-02-12 08:00:005,897,91026,003,0E6,2E80
2019-02-12 07:00:005,697,11025,502,3E11,0E00
2019-02-12 06:00:005,896,41025,202,6SE11,0E00
2019-02-12 05:00:006,095,41025,103,1NE5,9NE00
2019-02-12 04:00:006,495,21025,304,5N7,4N00
2019-02-12 03:00:006,594,41025,703,2N8,0N00
2019-02-12 02:00:006,992,21025,902,4NE7,8NE00
2019-02-12 01:00:007,690,21025,703,8N7,1N00
2019-02-12 00:00:008,288,71025,804,1N9,7N00
2019-02-11 23:00:008,789,21026,002,2NE10,0NE-10
2019-02-11 22:00:009,088,51025,501,7N4,9N00
2019-02-11 21:00:0010,184,61024,602,3N5,5N00
2019-02-11 20:00:0011,579,31024,003,2NW9,2NW00
2019-02-11 19:00:0013,373,41023,205,7NW14,3NW10
2019-02-11 18:00:0015,865,91022,207,0NW18,3NW130,0
2019-02-11 17:00:0017,961,91021,806,1W17,3W270,2
2019-02-11 16:00:0018,957,11021,806,9SW13,3SW2100,9
2019-02-11 15:00:0021,253,81022,208,2SW16,4SW5021,9
2019-02-11 14:00:0019,653,11023,007,7SW13,8S5542,5
2019-02-11 13:00:0019,448,21024,004,7S11,3S5512,6
2019-02-11 12:00:0017,852,81024,904,4SE11,0SE5032,2
2019-02-11 11:00:0016,062,11025,704,3E8,8SE4201,4
2019-02-11 10:00:0012,688,91026,205,1E12,2E2650,5
2019-02-11 09:00:0011,3100,01026,20,23,5E9,6E1180,1
2019-02-11 08:00:0010,8100,01025,602,7N9,1NW80
2019-02-11 07:00:0012,0100,01024,904,9NW11,5NW00
2019-02-11 06:00:0012,9100,01024,606,2W11,9W-10
2019-02-11 05:00:0013,3100,01024,306,1W12,7NW00
2019-02-11 04:00:0013,299,91024,704,0W12,5SW00
2019-02-11 03:00:0012,999,81025,003,5W10,6W00
2019-02-11 02:00:0012,499,61025,403,9W9,2SW00
2019-02-11 01:00:0012,499,41025,508,0NW15,2NW00
2019-02-11 00:00:0011,999,11025,705,0W11,0NW00
2019-02-10 23:00:0011,498,71025,905,1W11,7W00
2019-02-10 22:00:0011,197,51025,804,0W10,5NW00
2019-02-10 21:00:0011,596,11025,404,5NW9,3NW00
2019-02-10 20:00:0012,393,41024,904,9NW11,6W-10
2019-02-10 19:00:0013,688,31024,206,9NW13,8NW10
2019-02-10 18:00:0015,379,01023,707,0NW19,1NW310,0
2019-02-10 17:00:0016,477,41023,605,9W15,9NW800,2
2019-02-10 16:00:0017,673,51023,508,8SW20,9SW1850,6
2019-02-10 15:00:0016,578,01023,807,6SW17,6W2481,0
2019-02-10 14:00:0016,774,81024,208,4SW18,1SW2321,3
2019-02-10 13:00:0016,375,11024,706,9SW14,5SW3702,0
2019-02-10 12:00:0015,874,31025,205,1SW12,6SW3171,6
2019-02-10 11:00:0014,276,91025,603,3SE11,0SW4041,4
2019-02-10 10:00:008,996,61026,101,9E5,4E2710,5
2019-02-10 09:00:005,699,81026,102,8E5,9SE1200,1
2019-02-10 08:00:004,399,71025,602,7E8,4E110
2019-02-10 07:00:004,199,51025,102,7E4,5NE00
2019-02-10 06:00:004,399,41024,702,4E5,4E00
2019-02-10 05:00:004,499,11024,201,5NE4,1E00
2019-02-10 04:00:004,898,91024,002,3E4,5E00
2019-02-10 03:00:005,198,41024,101,6E4,1E00
2019-02-10 02:00:006,098,31023,801,2NE6,7N00
2019-02-10 01:00:006,397,81023,802,5N7,4N00
2019-02-10 00:00:007,197,21023,601,9NE6,2NW00
2019-02-09 23:00:007,796,21023,102,3NW5,9NW00
2019-02-09 22:00:008,294,71022,702,3NW11,0NW-10
2019-02-09 21:00:009,092,11022,102,8NW7,9NW00
2019-02-09 20:00:0010,488,71021,602,7W7,7W00
2019-02-09 19:00:0011,984,61020,903,3SW11,1W10
2019-02-09 18:00:0013,078,61020,404,9SW20,0SW190,0
2019-02-09 17:00:0013,973,41020,206,9SW13,2SW400,2
2019-02-09 16:00:0015,366,11020,006,7SW12,9SW1950,9
2019-02-09 15:00:0016,265,21020,306,6SW12,7S3711,8
2019-02-09 14:00:0016,665,51020,907,8S14,6SW4662,5
2019-02-09 13:00:0016,068,11022,006,4S13,7S4582,5
2019-02-09 12:00:0014,173,71022,902,6SE7,7S2991,6
2019-02-09 11:00:0011,385,71023,402,5E5,8NE2451,0
2019-02-09 10:00:008,398,31023,501,6NE6,7S1060,2
2019-02-09 09:00:005,799,41023,401,4NE7,1NE440,0
2019-02-09 08:00:004,499,01023,101,6NE6,4NE40
2019-02-09 07:00:004,898,71022,900,8NE2,8N00
2019-02-09 06:00:005,198,51022,503,4N6,3N00
2019-02-09 05:00:005,098,01022,103,6NW7,2NW00
2019-02-09 04:00:005,197,51022,201,5N4,7N00
2019-02-09 03:00:005,596,91022,701,9NE3,8N00
2019-02-09 02:00:006,196,21022,603,1N5,6N00
2019-02-09 01:00:006,495,21022,602,0N8,2N00
2019-02-09 00:00:006,893,61022,601,6NW8,2N00
2019-02-08 23:00:007,691,21022,601,3NW4,0NW00
2019-02-08 22:00:008,787,51022,201,6NE3,9NW00
2019-02-08 21:00:009,784,01021,402,8NW9,6NW00
2019-02-08 20:00:0010,980,11020,70,25,2NW12,8NW00
2019-02-08 19:00:0012,374,91020,007,6NW20,0NW00
2019-02-08 18:00:0014,169,51019,609,5NW23,6W110,0
2019-02-08 17:00:0014,870,11019,3010,4W19,5SW270,2
2019-02-08 16:00:0016,763,21018,808,0SW18,6SW1860,8
2019-02-08 15:00:0019,153,31019,307,2SW18,7SW4761,7
2019-02-08 14:00:0018,951,81020,204,4SE10,4S5262,2
2019-02-08 13:00:0017,756,71021,104,3NE16,9NW5272,2
2019-02-08 12:00:0016,760,31021,906,8NE17,0NE4921,7
2019-02-08 11:00:0014,868,01022,509,7NE20,1NE4111,1
2019-02-08 10:00:0011,389,41023,006,3NE17,5NE2640,4
2019-02-08 09:00:007,899,81023,106,1E13,4E1270,0
2019-02-08 08:00:005,599,91022,904,1E7,7E50
2019-02-08 07:00:005,399,71022,303,3E7,0E00
2019-02-08 06:00:005,599,51022,200,7NE3,5E00
2019-02-08 05:00:005,799,31022,101,6NE3,3NE00
2019-02-08 04:00:006,199,01022,201,7NE3,3NE00
2019-02-08 03:00:006,698,91022,402,1NE3,5NE00
2019-02-08 02:00:006,998,51022,501,6N4,5N00
2019-02-08 01:00:007,498,21022,401,4NW5,7N00
2019-02-08 00:00:008,197,81022,201,9N6,4N00
2019-02-07 23:00:008,697,01022,304,0NW8,2NW00
2019-02-07 22:00:009,195,71021,901,9NW7,1NW00
2019-02-07 21:00:009,993,31021,301,0NW3,9NW00
2019-02-07 20:00:0011,288,51021,002,3NW7,6N00
2019-02-07 19:00:0013,380,81020,504,1NW10,4NW10
2019-02-07 18:00:0015,768,41020,205,9NE16,1NE120,0
2019-02-07 17:00:0016,364,51019,904,8SW12,5SW280,1
2019-02-07 16:00:0017,359,51019,706,9SW14,1SW1850,5
2019-02-07 15:00:0020,250,01020,105,3E13,8NE4911,4
2019-02-07 14:00:0019,152,51021,207,9NE18,1NE5551,8
2019-02-07 13:00:0018,153,61022,3011,2NE23,1NE5601,9
2019-02-07 12:00:0017,053,31023,309,1NE21,1NE5121,6
2019-02-07 11:00:0014,864,21023,908,4NE23,0NE4211,0
2019-02-07 10:00:0010,486,11024,606,5NE16,8NE2640,3
2019-02-07 09:00:004,399,31024,901,2NE4,0NE1100,0
2019-02-07 08:00:003,299,01024,401,5NE4,6NW40
2019-02-07 07:00:003,599,01023,701,2NW6,1NW00
2019-02-07 06:00:003,798,81023,600,6E2,2N00
2019-02-07 05:00:004,198,71023,201,5NW4,0N00
2019-02-07 04:00:004,598,51023,600,7E8,2E00
2019-02-07 03:00:004,898,41023,900,8E2,5E00
2019-02-07 02:00:005,298,21023,701,1NE4,0NW00
2019-02-07 01:00:006,097,91023,502,2N4,9N00
2019-02-07 00:00:007,197,61023,601,3N4,9NW00
2019-02-06 23:00:008,097,11023,201,7NW7,0W00
2019-02-06 22:00:008,996,21022,902,0NW4,8NW00
2019-02-06 21:00:0010,094,61022,701,6NE4,9E00
2019-02-06 20:00:0011,089,81022,202,0NE4,1E-10
2019-02-06 19:00:0012,586,91021,40,22,8W5,8NW00
2019-02-06 18:00:0014,780,31021,105,5SW13,2SW340,0
2019-02-06 17:00:0016,271,81021,008,9SW18,8SW1130,2
2019-02-06 16:00:0016,475,3102108,4SW16,6SW2080,7
2019-02-06 15:00:0018,658,21021,307,5SW18,2SW4381,6
2019-02-06 14:00:0018,353,91022,107,2S13,6S5062,2
2019-02-06 13:00:0018,351,61023,108,3S13,5S5232,3
2019-02-06 12:00:0017,656,11023,905,6S12,0S4431,8
2019-02-06 11:00:0014,367,71024,503,0SE6,0SE3561,1
2019-02-06 10:00:009,687,11025,201,9SE5,6SE2410,4
2019-02-06 09:00:005,499,31025,501,8E8,8SE1050,0
2019-02-06 08:00:003,899,21025,301,7E10,0E100
2019-02-06 07:00:003,599,01024,802,3E4,1E00
2019-02-06 06:00:003,598,81024,703,0E8,2E00
2019-02-06 05:00:003,698,41024,802,2NE4,0E00
2019-02-06 04:00:004,198,31025,001,3NE3,2E00
2019-02-06 03:00:004,598,01025,200,8E2,7E00
2019-02-06 02:00:004,997,51025,401,2NE5,0E00
2019-02-06 01:00:005,496,91025,701,6E11,5E00
2019-02-06 00:00:006,196,21025,601,6N4,2N00
2019-02-05 23:00:007,095,21025,601,6N4,6N00
2019-02-05 22:00:007,993,91025,601,5SE3,4E00
2019-02-05 21:00:009,194,41025,302,8E6,8NE00
2019-02-05 20:00:0010,293,41025,002,3SE6,3E00
2019-02-05 19:00:0011,386,91024,603,1S6,5S00
2019-02-05 18:00:0013,273,01024,104,4SW16,1SW90,0
2019-02-05 17:00:0014,557,11023,705,6SW12,6SW250,2
2019-02-05 16:00:0015,950,61023,606,3SW12,0SW1760,7
2019-02-05 15:00:0017,646,61024,006,4SW13,0SW4511,8
2019-02-05 14:00:0017,743,91025,008,0S12,9S5462,5
2019-02-05 13:00:0017,742,11025,907,4S13,4S5452,7
2019-02-05 12:00:0016,950,51026,503,6S8,1S5002,2
2019-02-05 11:00:0014,159,21026,902,2SE5,3NE4061,4
2019-02-05 10:00:009,968,31027,402,9E7,1SE2350,5
2019-02-05 09:00:004,390,21027,502,6E6,3NE1040,0
2019-02-05 08:00:003,192,31026,901,9E5,8NE40
2019-02-05 07:00:003,891,41026,502,2NE3,6NE00
2019-02-05 06:00:004,288,01026,302,8E5,1E00
2019-02-05 05:00:005,478,71026,302,0E4,5NE00
2019-02-05 04:00:006,473,41026,304,1NE11,4NE-10
2019-02-05 03:00:006,376,11026,504,4NE12,6NE00
2019-02-05 02:00:005,879,51026,504,1NE7,2NE00
2019-02-05 01:00:005,881,11026,604,3NE8,7NE00
2019-02-05 00:00:006,379,81026,505,3E9,3NE00
2019-02-04 23:00:006,681,01026,403,9E8,3NE00
2019-02-04 22:00:008,173,11026,402,9E6,0E-10
2019-02-04 21:00:008,773,91026,303,9NE10,4NE00
2019-02-04 20:00:009,378,31025,902,8NE6,9N00
2019-02-04 19:00:0010,773,51025,102,7NW6,9NW10
2019-02-04 18:00:0012,762,91024,803,8SW12,7SW310,0
2019-02-04 17:00:0013,751,51024,806,4SW14,8SW650,2
2019-02-04 16:00:0014,545,71024,406,1SW12,1SW1880,8
2019-02-04 15:00:0016,541,81024,806,4S11,2S4861,9
2019-02-04 14:00:0016,142,41025,606,8S14,0S5242,5
2019-02-04 13:00:0015,940,11026,306,0S15,9S5272,6
2019-02-04 12:00:0014,740,71027,105,3E12,5NE4862,1
2019-02-04 11:00:0012,353,51027,703,5E11,1NE4061,4
2019-02-04 10:00:008,071,11028,302,1E10,4E2350,5
2019-02-04 09:00:003,188,11028,602,4E6,3E1000,0
2019-02-04 08:00:001,791,81028,203,3E6,5E40
2019-02-04 07:00:001,791,81027,903,1E8,4E00
2019-02-04 06:00:001,990,21027,902,9E8,2E00
2019-02-04 05:00:002,587,51028,001,9NE5,1NE00
2019-02-04 04:00:003,087,31028,003,3N8,4N00
2019-02-04 03:00:004,286,11028,203,1E12,0NE00
2019-02-04 02:00:005,180,71028,203,3E13,4NE00
2019-02-04 01:00:004,582,81028,503,5E9,9NE00
2019-02-04 00:00:005,182,51028,203,4E10,9E00
2019-02-03 23:00:005,383,81027,802,6E7,1NE00
2019-02-03 22:00:006,080,21027,401,4NW5,4NW00
2019-02-03 21:00:007,075,81026,702,9NW8,6NW00
2019-02-03 20:00:008,470,51026,205,5NW11,4N00
2019-02-03 19:00:0010,553,41025,605,9N13,1N00
2019-02-03 18:00:0012,545,71025,007,7NE22,9NE100,0
2019-02-03 17:00:0013,741,01024,408,0NE19,7N230,2
2019-02-03 16:00:0014,638,71023,608,0N18,9N1610,7
2019-02-03 15:00:0016,537,31023,108,6N17,6N4881,8
2019-02-03 14:00:0015,740,51023,909,6N22,9N5412,4
2019-02-03 13:00:0014,844,01025,0011,5NE26,3NE5382,5
2019-02-03 12:00:0014,344,51025,808,5NE21,4N4922,0
2019-02-03 11:00:0013,448,21026,109,8N23,2N3981,2
2019-02-03 10:00:0011,658,11026,407,3N24,7NE2290,4
2019-02-03 09:00:008,969,11026,306,3N19,1NE930,0
2019-02-03 08:00:007,872,11025,7017,5N26,5N40
2019-02-03 07:00:007,175,61025,7013,5N23,2N00
2019-02-03 06:00:006,876,51025,3014,1N24,3N00
2019-02-03 05:00:006,577,41025,6010,8N21,7N00
2019-02-03 04:00:006,080,71025,707,5NW16,0NW00
2019-02-03 03:00:005,483,21025,405,1NW15,7NW00
2019-02-03 02:00:005,683,51025,404,0NW9,5NW00
2019-02-03 01:00:006,182,81025,204,2NW11,6N00
2019-02-03 00:00:007,080,31024,503,2NW9,0NW00
2019-02-02 23:00:007,878,01023,608,3N16,8NW00
2019-02-02 22:00:008,573,71023,1010,5N15,9N00
2019-02-02 21:00:009,571,41022,2011,5NW23,0NW00
2019-02-02 20:00:009,372,91021,608,5NW21,1NW00
2019-02-02 19:00:0010,268,91020,409,1NW20,6NW00
2019-02-02 18:00:0011,562,81019,8011,1NW28,1N140,0
2019-02-02 17:00:0012,656,01018,9016,3NW33,0N330,1
2019-02-02 16:00:0013,953,21018,1016,0NW40,4N1600,6
2019-02-02 15:00:0015,247,41017,3017,5NW38,4N4591,6
2019-02-02 14:00:0015,148,21017,4016,3NW36,9NW4632,0
2019-02-02 13:00:0014,748,11017,4018,4N39,9NW5202,2
2019-02-02 12:00:0014,053,61017,5016,1N34,6N4591,7
2019-02-02 11:00:0012,364,81017,1019,0N35,2N3771,0
2019-02-02 10:00:0010,087,71017,5013,5N30,2NE2260,3
2019-02-02 09:00:008,097,71017,007,6NW23,8N770,0
2019-02-02 08:00:007,697,71015,80,811,7N20,7N130
2019-02-02 07:00:007,496,61014,804,3NW16,9N00
2019-02-02 06:00:008,394,41013,90,47,8NW27,7NW00
2019-02-02 05:00:008,194,41013,108,7NW22,8N00
2019-02-02 04:00:008,393,41012,70,49,6NW30,4NW00
2019-02-02 03:00:008,891,31012,30,411,5NW39,5NW00
2019-02-02 02:00:009,489,01011,90,210,6NW29,3N00
2019-02-02 01:00:0010,086,01011,30,69,3NW34,4N00
2019-02-02 00:00:0010,677,81010,80,210,3NW24,5NW00
2019-02-01 23:00:0010,874,31010,309,6NW27,2NW00
2019-02-01 22:00:0011,373,51009,9011,4NW26,6NW00
2019-02-01 21:00:0011,472,71009,2014,6NW40,3NW00
2019-02-01 20:00:0010,782,71008,2012,5NW31,2NW00
2019-02-01 19:00:009,892,41007,0013,1NW31,0N00
2019-02-01 18:00:0011,288,01005,91,215,6NW48,2N520,0
2019-02-01 17:00:0011,985,31004,8016,7NW48,9NW470,1
2019-02-01 16:00:0013,474,41003,90,820,5NW56,0NW1600,5
2019-02-01 15:00:0014,670,01003,6022,4NW47,4NW3321,1
2019-02-01 14:00:0013,481,01004,00,820,2NW48,9W3851,4
2019-02-01 13:00:0015,165,41003,90,623,4NW53,5NW4121,6
2019-02-01 12:00:0015,165,11004,1019,2NW55,6W3661,2
2019-02-01 11:00:0014,369,81004,4015,2NW37,1NW3290,8
2019-02-01 10:00:0012,287,01004,6011,9NW35,0NW1710,2
2019-02-01 09:00:0011,094,31004,10,411,6NW32,6NW510,0
2019-02-01 08:00:0010,094,21003,2012,3NW32,2W80
2019-02-01 07:00:0010,799,21002,7011,5NW29,6NW00
2019-02-01 06:00:0011,1100,01002,2012,6NW35,8NW00
2019-02-01 05:00:0011,4100,01001,8010,1NW24,5NW00
2019-02-01 04:00:0013,3100,01001,60,817,5NW42,1NW00
2019-02-01 03:00:0014,3100,01001,53,416,9W44,1W00
2019-02-01 02:00:0014,4100,01002,12,616,8W38,8W00
2019-02-01 01:00:0014,4100,01002,9525,6W175,9N00
2019-02-01 00:00:0014,3100,01003,8118,6SW37,7SW00
2019-01-31 23:00:0014,3100,01004,50,217,9SW37,9W00
2019-01-31 22:00:0014,199,71005,50,213,2SW30,7W00
2019-01-31 21:00:0014,098,91006,00,413,6W28,8SW00
2019-01-31 20:00:0013,898,31006,6011,0SW26,8SW00
2019-01-31 19:00:0013,497,61006,808,5SW19,5W00
2019-01-31 18:00:0014,395,51007,00,48,8W24,3W200
2019-01-31 17:00:0015,883,61007,10,211,1W25,3NW610,1
2019-01-31 16:00:0015,386,81007,1011,9W31,6W1090,4
2019-01-31 15:00:0016,588,51007,7014,7W31,0SW1700,7
2019-01-31 14:00:0016,890,41008,8012,5W29,3SW3251,4
2019-01-31 13:00:0015,493,41009,60,218,0SW41,0W1851,0
2019-01-31 12:00:0015,989,31010,1016,4SW33,8W1850,7
2019-01-31 11:00:0015,395,41010,4013,1SW31,6W1940,5
2019-01-31 10:00:0013,999,41011,108,1SW24,2W1240,2
2019-01-31 09:00:0012,5100,01011,106,2SW16,7SW480,0
2019-01-31 08:00:0012,3100,01010,707,2W19,4W30
2019-01-31 07:00:0012,3100,01010,506,5W19,6W00
2019-01-31 06:00:0012,4100,01010,60,27,8W18,2NW00
2019-01-31 05:00:0012,4100,01011,106,4W16,8NW00
2019-01-31 04:00:0012,5100,01011,709,1W20,4NW00
2019-01-31 03:00:0012,4100,01012,10,29,9W21,0W00
2019-01-31 02:00:0012,699,71012,308,8W21,7W00
2019-01-31 01:00:0012,699,71012,7011,6W26,3W00
2019-01-31 00:00:0012,599,71012,909,2W22,4NW00
2019-01-30 23:00:0012,599,21013,20,27,7W20,3W00
2019-01-30 22:00:0012,698,81013,50,27,5W19,1W00
2019-01-30 21:00:0012,398,41013,705,5SW13,0SW00
2019-01-30 20:00:0012,297,21013,805,3SW12,8SW00
2019-01-30 19:00:0013,194,91013,704,9W12,4W00
2019-01-30 18:00:0013,694,01013,706,4W18,4NW160
2019-01-30 17:00:0013,995,61014,008,6W19,6W790,0
2019-01-30 16:00:0013,997,31014,209,2W20,1NW1220,3
2019-01-30 15:00:0013,997,91014,60,29,6NW22,2W1360,5
2019-01-30 14:00:0014,098,71015,609,6NW26,3W1740,8
2019-01-30 13:00:0013,898,81016,507,6W19,4NW1310,5
2019-01-30 12:00:0013,799,41017,208,4NW20,3W1520,6
2019-01-30 11:00:0013,499,51017,504,7W14,0NW920,2
2019-01-30 10:00:0012,999,51017,503,9W10,6W840,1
2019-01-30 09:00:0012,399,21017,206,1W13,9W420,0
2019-01-30 08:00:0012,398,41017,01,46,7NW17,0NW20
2019-01-30 07:00:0012,197,81016,80,28,0NW21,0W00
2019-01-30 06:00:0011,997,41016,809,3NW19,5NW00
2019-01-30 05:00:0011,697,41017,1010,0NW24,1NW00
2019-01-30 04:00:0011,197,81017,707,7NW18,8NW00
2019-01-30 03:00:0010,697,41018,103,9W8,7W00
2019-01-30 02:00:0010,597,71018,304,8W10,5SW00
2019-01-30 01:00:009,797,01018,705,3W11,7W00
2019-01-30 00:00:0010,095,51019,002,5W6,4W00
2019-01-29 23:00:0010,793,81019,402,8W8,4W00
2019-01-29 22:00:0011,492,91019,504,2W9,7W00
2019-01-29 21:00:0011,692,91019,404,9NW13,2NW00
2019-01-29 20:00:0012,289,81019,204,7NW15,0N00
2019-01-29 19:00:0012,385,91018,806,7NW19,3NW00
2019-01-29 18:00:0012,882,81018,5010,1NW23,9NW200
2019-01-29 17:00:0014,079,31018,40,212,5NW31,1NW960,1
2019-01-29 16:00:0015,174,11018,3013,8NW34,6NW1420,4
2019-01-29 15:00:0016,070,51018,3014,9NW32,2NW2150,9
2019-01-29 14:00:0015,970,51019,1012,9NW28,6NW2331,1
2019-01-29 13:00:0015,573,41020,0012,3NW28,1NW2011,0
2019-01-29 12:00:0015,379,51021,1010,3NW31,2NW2060,8
2019-01-29 11:00:0015,182,21021,708,6NW20,2W2530,7
2019-01-29 10:00:0013,189,01022,205,1W18,6W960,1
2019-01-29 09:00:0012,189,51021,804,3NW11,9NW530,0
2019-01-29 08:00:0012,088,91021,206,6NW13,0NW40
2019-01-29 07:00:0011,991,11021,006,2NW20,0NW00
2019-01-29 06:00:0012,189,91020,904,3NW12,0NW00
2019-01-29 05:00:0012,288,31021,104,3NW12,4NW-10
2019-01-29 04:00:0012,088,41021,602,5SW9,9N00
2019-01-29 03:00:0011,988,41021,801,6SW8,3NE-10
2019-01-29 02:00:0011,787,81022,202,3SW8,7E00
2019-01-29 01:00:0011,289,01022,703,9NW12,7NW00
2019-01-29 00:00:0010,591,41022,804,5SW10,3S00
2019-01-28 23:00:0011,088,61022,502,9SW9,1SW00
2019-01-28 22:00:0011,786,01022,206,0NW16,7NW00
2019-01-28 21:00:0012,283,11022,0011,2NW22,9NW00
2019-01-28 20:00:0012,880,21022,309,8NW24,1NW00
2019-01-28 19:00:0012,880,71022,108,1NW20,2NW00
2019-01-28 18:00:0013,675,81021,908,3NW20,4N100
2019-01-28 17:00:0014,173,31021,7015,1N32,2N530,0
2019-01-28 16:00:0014,472,71021,3018,3NW40,3NW1080,4
2019-01-28 15:00:0015,366,71021,3017,9NW38,3NW1920,9
2019-01-28 14:00:0017,656,01021,5017,7NW35,8NW5252,0
2019-01-28 13:00:0016,757,51022,1015,3NW31,3NW4952,0
2019-01-28 12:00:0016,058,21022,8016,4NW36,8N4481,6
2019-01-28 11:00:0015,059,41023,0016,8NW37,9N3641,0
2019-01-28 10:00:0013,565,91023,7019,2N35,4N2080,3
2019-01-28 09:00:0011,672,81024,2015,6N37,7N800,0
2019-01-28 08:00:0011,074,01023,2018,2N34,7N30
2019-01-28 07:00:0010,773,21023,1016,1N29,3N00
2019-01-28 06:00:009,976,51023,2011,2N18,2N-10
2019-01-28 05:00:009,878,01023,206,5N17,9N-10
2019-01-28 04:00:0010,375,61023,006,4N22,2NW00
2019-01-28 03:00:0010,970,71022,6016,4N39,7NW00
2019-01-28 02:00:0011,066,21022,8014,0N32,5N00
2019-01-28 01:00:0011,364,71023,0021,4N42,5N00
2019-01-28 00:00:0010,768,31023,1013,4N43,3N00
2019-01-27 23:00:0010,767,31023,005,1NW18,7N00
2019-01-27 22:00:0011,264,01022,608,2N25,5N00
2019-01-27 21:00:0011,365,11021,7010,1N23,4N00
2019-01-27 20:00:0010,867,41020,908,6NW20,5N00
2019-01-27 19:00:0011,565,41020,108,5NW21,2N00
2019-01-27 18:00:0012,861,21019,3012,6N23,2N150,0
2019-01-27 17:00:0014,055,91018,8021,3N38,2N520,1
2019-01-27 16:00:0015,054,31018,3021,2N39,1N960,4
2019-01-27 15:00:0016,853,01018,1021,3NW40,9N4611,3
2019-01-27 14:00:0017,951,71018,6021,5N41,1N5731,8
2019-01-27 13:00:0017,063,31019,5015,3NW31,2N5341,8
2019-01-27 12:00:0016,563,71020,0014,3N30,2NW4071,2
2019-01-27 11:00:0014,471,91020,3010,9N20,2N3820,9
2019-01-27 10:00:0010,596,41020,404,4N18,1NW2260,3
2019-01-27 09:00:006,799,71020,604,5N12,9N910,0
2019-01-27 08:00:005,7100,01020,004,6N14,7N30
2019-01-27 07:00:005,099,91019,703,6NE10,7N00
2019-01-27 06:00:004,899,61019,101,6W5,0SW00
2019-01-27 05:00:005,099,41019,002,4E9,6NE00
2019-01-27 04:00:005,599,21018,801,7SE4,2E00
2019-01-27 03:00:006,098,81019,101,4NE3,6E00
2019-01-27 02:00:006,898,51018,702,1S9,6S00
2019-01-27 01:00:007,497,81018,603,2N8,9N00
2019-01-27 00:00:008,496,91018,502,7N8,4NE00
2019-01-26 23:00:008,995,11018,203,5NW10,5NW00
2019-01-26 22:00:009,593,11018,002,0NW6,4NW00
2019-01-26 21:00:0011,092,61018,005,4NW15,8N00
2019-01-26 20:00:0011,791,11017,704,9NW16,2W00
2019-01-26 19:00:0012,891,71017,305,4W12,8W00
2019-01-26 18:00:0014,385,71017,104,0SW9,2SW100,0
2019-01-26 17:00:0015,679,81016,805,5SW15,7W270,1
2019-01-26 16:00:0016,472,21016,508,4SW16,5SW610,5
2019-01-26 15:00:0019,155,31016,409,4S17,8S4111,4
2019-01-26 14:00:0019,153,91016,8010,8S20,6S4831,9
2019-01-26 13:00:0019,357,51017,609,6S16,2S4851,9
2019-01-26 12:00:0018,465,81018,204,0SE12,0S4381,6
2019-01-26 11:00:0015,377,61018,802,7E7,4E3680,9
2019-01-26 10:00:0010,797,31019,302,2E6,6E2270,3
2019-01-26 09:00:006,4100,01019,501,7E5,3E950,0
2019-01-26 08:00:005,699,91018,701,8E3,9NE20
2019-01-26 07:00:005,999,91018,101,7E4,3E00
2019-01-26 06:00:006,099,71018,001,8NE4,5E00
2019-01-26 05:00:006,199,61017,903,0N6,2N-10
2019-01-26 04:00:006,299,21017,901,9N3,9N00
2019-01-26 03:00:006,999,11017,801,2N3,7NE00
2019-01-26 02:00:007,498,81017,801,8E4,2NE00
2019-01-26 01:00:007,998,51017,801,4E3,4E00
2019-01-26 00:00:008,698,11017,902,4N9,3NE00
2019-01-25 23:00:009,197,51017,702,7N6,7N00
2019-01-25 22:00:009,896,61017,701,0NE9,5N-10
2019-01-25 21:00:0010,895,41017,202,0E6,6E00
2019-01-25 20:00:0011,593,11016,702,5E6,0SW00
2019-01-25 19:00:0012,889,01016,003,3SW8,0SW00
2019-01-25 18:00:0014,779,81015,304,0SW15,3SW80,0
2019-01-25 17:00:0016,070,11014,905,0SW12,0SW230,1
2019-01-25 16:00:0017,165,21014,607,2SW14,6S530,5
2019-01-25 15:00:0019,359,31014,408,2S15,5SW4131,3
2019-01-25 14:00:0019,358,31014,708,8S17,0S4921,8
2019-01-25 13:00:0020,155,31015,306,4S13,7SW4951,9
2019-01-25 12:00:0019,157,81016,104,7E10,1E4491,6
2019-01-25 11:00:0017,462,61016,305,3E9,8E3620,9
2019-01-25 10:00:0015,071,51016,704,0E11,8E2010,3
2019-01-25 09:00:0010,686,21016,804,1E9,4E680,0
2019-01-25 08:00:009,392,41016,205,2E11,7NE20
2019-01-25 07:00:009,592,31015,404,3E9,5E00
2019-01-25 06:00:009,693,81014,804,8E9,8NE-10
2019-01-25 05:00:009,893,21014,703,5E9,2NE00
2019-01-25 04:00:0010,291,11014,703,4E8,9NE00
2019-01-25 03:00:0010,691,41014,804,8NE11,5NE00
2019-01-25 02:00:0010,492,51015,004,3E9,2E00
2019-01-25 01:00:0011,389,91015,205,3NE13,4NE00
2019-01-25 00:00:0011,888,01015,105,2NE11,8NE00
2019-01-24 23:00:0012,785,21014,906,4NE17,1N00
2019-01-24 22:00:0012,388,91014,807,6NE17,6N00
2019-01-24 21:00:0011,492,81013,903,0W12,3NE00
2019-01-24 20:00:0012,489,31013,203,7NW17,7N00
2019-01-24 19:00:0013,685,91012,307,1NW18,7NW00
2019-01-24 18:00:0015,180,31011,6012,6N30,5N90,0
2019-01-24 17:00:0016,375,81011,1015,1NW35,3NW240,1
2019-01-24 16:00:0017,471,11010,6015,0NW28,9NW540,4
2019-01-24 15:00:0019,065,01010,5016,1NW34,1N3961,3
2019-01-24 14:00:0019,560,81011,4012,6NW24,9N4871,8
2019-01-24 13:00:0019,360,01012,9014,1N28,9N5351,9
2019-01-24 12:00:0018,362,91013,8015,9N36,0N5001,6
2019-01-24 11:00:0016,567,21014,1014,3N33,6N2770,8
2019-01-24 10:00:0014,974,11014,1015,3N38,0N1060,2
2019-01-24 09:00:0013,782,11014,007,6N34,6N460,0
2019-01-24 08:00:0013,184,71013,903,7W19,3N10
2019-01-24 07:00:0013,384,21013,4011,4N35,8N00,0
2019-01-24 06:00:0013,782,21013,7022,8N39,8N00
2019-01-24 05:00:0013,782,21014,4024,6N41,4N00
2019-01-24 04:00:0013,683,41015,1016,7NW31,4N00
2019-01-24 03:00:0013,684,11015,8014,1NW31,3N00
2019-01-24 02:00:0013,487,71016,5010,3NW22,3NW00
2019-01-24 01:00:0013,785,71017,0012,1NW24,0N00
2019-01-24 00:00:0013,388,11017,008,6NW23,1N-10
2019-01-23 23:00:0013,288,11016,907,3NW18,6NW00
2019-01-23 22:00:0013,485,81016,908,7NW21,7NW-10
2019-01-23 21:00:0013,882,11016,8010,7NW25,7NW00
2019-01-23 20:00:0013,681,81016,909,7NW24,3NW00
2019-01-23 19:00:0013,879,71016,6014,8NW29,8NW00
2019-01-23 18:00:0014,377,01016,4012,5NW34,4N200
2019-01-23 17:00:0015,171,21016,40,210,8NW24,9NW810,0
2019-01-23 16:00:0016,064,61016,3017,4NW37,4N1740,3
2019-01-23 15:00:0016,660,71016,1022,8NW42,4NW4261,1
2019-01-23 14:00:0016,464,41016,9023,2NW48,8NW4261,4
2019-01-23 13:00:0016,666,01017,7022,6NW49,4N4761,6
2019-01-23 12:00:0016,366,81018,4017,2NW37,0N4671,3
2019-01-23 11:00:0014,173,91019,4013,6NW31,9N2550,6
2019-01-23 10:00:0012,879,11019,6014,2NW29,7N1040,1
2019-01-23 09:00:0011,787,01019,2017,6NW33,7N290,0
2019-01-23 08:00:0010,993,71019,105,9W20,9NW10
2019-01-23 07:00:0010,791,31019,006,4NW17,7NW00,0
2019-01-23 06:00:0011,389,31019,0010,7NW25,5NW00
2019-01-23 05:00:0011,189,41019,1014,0NW27,9NW00
2019-01-23 04:00:0010,393,11019,4011,9NW25,2NW00
2019-01-23 03:00:0010,196,61019,806,2NW17,4NW00
2019-01-23 02:00:0010,497,61020,002,9W11,3W00
2019-01-23 01:00:0010,697,81020,102,5W8,1W00
2019-01-23 00:00:0011,397,81019,80,24,5NW16,5NW00